PWSweather.com
Personal Weather Stations
Station Observations
OZIERI
Punta Idda, OzieriIT

Punta IddaOzieriIT

Lat: 40.584142, Lon: 9.007657999999992

Elevation: 1483

Station Type: Lacrosse ws2350

www.ozierimeteo.altervista.com

High Low Average
Temperature 66.0°F18.9°C 48.2°F9.0°C 55.8°F13.2°C
Dew Point 47.8°F8.8°C 30.6°F-0.8°C 40.4°F4.7°C
Winds 7.6 mph 12.2 kmh 0.2 mph 0.3 kmh 3.0 mph S4.8 kmh S
Wind Gusts 18.1 mph29.1 kmh -- 5.0 mph8.0 kmh
Humidity 82% 37% 58%
Pressure 30.10 in1019.3 mb 29.86 in1011.2 mb -
Precipitation 0.04 in1.0 mm - -
Hour Temp Dew Point Humidity Winds Wind Gusts Pressure Precip Precip Rate Daily Precip Total
12:00 AM 54.7°F12.6°C 33.8°F1.0°C 45% 3.1 mph ESE5.0 kmh ESE 4.7 mph7.6 kmh 30.11 in1019.6 mb 0.00 in0.0 mm 0.00 in0.0 mm 0.00 in0.0 mm
12:02 AM 54.5°F12.5°C 33.6°F0.9°C 45% 3.4 mph ESE5.5 kmh ESE 4.5 mph7.2 kmh 30.11 in1019.6 mb 0.00 in0.0 mm 0.00 in0.0 mm 0.00 in0.0 mm
12:05 AM 54.0°F12.2°C 33.6°F0.9°C 46% 3.4 mph SE5.5 kmh SE 3.8 mph6.1 kmh 30.11 in1019.6 mb 0.00 in0.0 mm 0.00 in0.0 mm 0.00 in0.0 mm
12:07 AM 53.8°F12.1°C 33.4°F0.8°C 46% 3.8 mph SE6.1 kmh SE 4.7 mph7.6 kmh 30.11 in1019.6 mb 0.00 in0.0 mm 0.00 in0.0 mm 0.00 in0.0 mm
12:09 AM 53.4°F11.9°C 33.1°F0.6°C 46% 3.6 mph SE5.8 kmh SE 4.7 mph7.6 kmh 30.11 in1019.6 mb 0.00 in0.0 mm 0.00 in0.0 mm 0.00 in0.0 mm
12:11 AM 53.4°F11.9°C 33.6°F0.9°C 47% 3.6 mph ESE5.8 kmh ESE 4.7 mph7.6 kmh 30.11 in1019.6 mb 0.00 in0.0 mm 0.00 in0.0 mm 0.00 in0.0 mm
12:13 AM 53.1°F11.7°C 33.4°F0.8°C 47% 4.3 mph ESE6.9 kmh ESE 6.3 mph10.1 kmh 30.11 in1019.6 mb 0.00 in0.0 mm 0.00 in0.0 mm 0.00 in0.0 mm
12:15 AM 52.7°F11.5°C 33.6°F0.9°C 48% 4.9 mph SE7.9 kmh SE 6.5 mph10.5 kmh 30.11 in1019.6 mb 0.00 in0.0 mm 0.00 in0.0 mm 0.00 in0.0 mm
12:18 AM 52.5°F11.4°C 33.4°F0.8°C 48% 4.9 mph ESE7.9 kmh ESE 6.9 mph11.1 kmh 30.11 in1019.6 mb 0.00 in0.0 mm 0.00 in0.0 mm 0.00 in0.0 mm
12:20 AM 52.5°F11.4°C 33.4°F0.8°C 48% 4.0 mph SW6.4 kmh SW 5.8 mph9.3 kmh 30.11 in1019.6 mb 0.00 in0.0 mm 0.00 in0.0 mm 0.00 in0.0 mm
12:22 AM 52.9°F11.6°C 33.8°F1.0°C 48% 2.9 mph SE4.7 kmh SE 6.3 mph10.1 kmh 30.11 in1019.6 mb 0.00 in0.0 mm 0.00 in0.0 mm 0.00 in0.0 mm
12:24 AM 52.9°F11.6°C 33.8°F1.0°C 48% 3.6 mph SE5.8 kmh SE 5.1 mph8.2 kmh 30.11 in1019.6 mb 0.00 in0.0 mm 0.00 in0.0 mm 0.00 in0.0 mm
12:27 AM 52.9°F11.6°C 33.8°F1.0°C 48% 4.3 mph SE6.9 kmh SE 6.3 mph10.1 kmh 30.10 in1019.3 mb 0.00 in0.0 mm 0.00 in0.0 mm 0.00 in0.0 mm
12:29 AM 52.9°F11.6°C 33.8°F1.0°C 48% 4.0 mph SE6.4 kmh SE 4.9 mph7.9 kmh 30.10 in1019.3 mb 0.00 in0.0 mm 0.00 in0.0 mm 0.00 in0.0 mm
12:31 AM 53.1°F11.7°C 33.8°F1.0°C 48% 3.6 mph SE5.8 kmh SE 5.4 mph8.7 kmh 30.10 in1019.3 mb 0.00 in0.0 mm 0.00 in0.0 mm 0.00 in0.0 mm
12:33 AM 53.2°F11.8°C 33.4°F0.8°C 47% 4.3 mph SE6.9 kmh SE 6.5 mph10.5 kmh 30.10 in1019.3 mb 0.00 in0.0 mm 0.00 in0.0 mm 0.00 in0.0 mm
12:35 AM 53.2°F11.8°C 33.4°F0.8°C 47% 4.9 mph ESE7.9 kmh ESE 7.4 mph11.9 kmh 30.10 in1019.3 mb 0.00 in0.0 mm 0.00 in0.0 mm 0.00 in0.0 mm
12:38 AM 53.2°F11.8°C 34.0°F1.1°C 48% 4.9 mph SE7.9 kmh SE 6.0 mph9.7 kmh 30.10 in1019.3 mb 0.00 in0.0 mm 0.00 in0.0 mm 0.00 in0.0 mm
12:40 AM 53.2°F11.8°C 34.0°F1.1°C 48% 4.9 mph ESE7.9 kmh ESE 5.6 mph9.0 kmh 30.10 in1019.3 mb 0.00 in0.0 mm 0.00 in0.0 mm 0.00 in0.0 mm
12:42 AM 53.4°F11.9°C 34.2°F1.2°C 48% 5.4 mph SSE8.7 kmh SSE 6.5 mph10.5 kmh 30.10 in1019.3 mb 0.00 in0.0 mm 0.00 in0.0 mm 0.00 in0.0 mm
12:44 AM 53.2°F11.8°C 34.5°F1.4°C 49% 5.4 mph SE8.7 kmh SE 6.7 mph10.8 kmh 30.10 in1019.3 mb 0.00 in0.0 mm 0.00 in0.0 mm 0.00 in0.0 mm
12:46 AM 53.2°F11.8°C 34.0°F1.1°C 48% 5.1 mph ESE8.2 kmh ESE 5.6 mph9.0 kmh 30.10 in1019.3 mb 0.00 in0.0 mm 0.00 in0.0 mm 0.00 in0.0 mm
12:48 AM 53.2°F11.8°C 34.0°F1.1°C 48% 4.9 mph SE7.9 kmh SE 7.4 mph11.9 kmh 30.10 in1019.3 mb 0.00 in0.0 mm 0.00 in0.0 mm 0.00 in0.0 mm
12:51 AM 53.2°F11.8°C 34.0°F1.1°C 48% 4.9 mph SE7.9 kmh SE 5.8 mph9.3 kmh 30.10 in1019.3 mb 0.00 in0.0 mm 0.00 in0.0 mm 0.00 in0.0 mm
12:53 AM 53.1°F11.7°C 33.8°F1.0°C 48% 5.8 mph ESE9.3 kmh ESE 7.8 mph12.6 kmh 30.09 in1019.0 mb 0.00 in0.0 mm 0.00 in0.0 mm 0.00 in0.0 mm
12:55 AM 52.7°F11.5°C 33.6°F0.9°C 48% 5.8 mph SE9.3 kmh SE 7.4 mph11.9 kmh 30.09 in1019.0 mb 0.00 in0.0 mm 0.00 in0.0 mm 0.00 in0.0 mm
12:58 AM 52.3°F11.3°C 33.8°F1.0°C 49% 5.8 mph ESE9.3 kmh ESE 8.3 mph13.4 kmh 30.09 in1019.0 mb 0.00 in0.0 mm 0.00 in0.0 mm 0.00 in0.0 mm
01:00 AM 52.0°F11.1°C 34.0°F1.1°C 50% 5.1 mph ESE8.2 kmh ESE 7.6 mph12.2 kmh 30.10 in1019.3 mb 0.00 in0.0 mm 0.00 in0.0 mm 0.00 in0.0 mm
01:02 AM 51.6°F10.9°C 34.5°F1.4°C 52% 5.4 mph ESE8.7 kmh ESE 6.7 mph10.8 kmh 30.09 in1019.0 mb 0.00 in0.0 mm 0.00 in0.0 mm 0.00 in0.0 mm
01:04 AM 51.4°F10.8°C 34.9°F1.6°C 53% 4.7 mph ESE7.6 kmh ESE 6.0 mph9.7 kmh 30.09 in1019.0 mb 0.00 in0.0 mm 0.00 in0.0 mm 0.00 in0.0 mm
01:06 AM 51.1°F10.6°C 35.1°F1.7°C 54% 5.4 mph ESE8.7 kmh ESE 7.4 mph11.9 kmh 30.09 in1019.0 mb 0.00 in0.0 mm 0.00 in0.0 mm 0.00 in0.0 mm
01:08 AM 51.1°F10.6°C 35.4°F1.9°C 55% 5.8 mph E9.3 kmh E 7.6 mph12.2 kmh 30.09 in1019.0 mb 0.00 in0.0 mm 0.00 in0.0 mm 0.00 in0.0 mm
01:10 AM 51.1°F10.6°C 35.4°F1.9°C 55% 5.8 mph SE9.3 kmh SE 8.3 mph13.4 kmh 30.09 in1019.0 mb 0.00 in0.0 mm 0.00 in0.0 mm 0.00 in0.0 mm
01:12 AM 51.1°F10.6°C 35.4°F1.9°C 55% 6.3 mph ESE10.1 kmh ESE 8.1 mph13.0 kmh 30.09 in1019.0 mb 0.00 in0.0 mm 0.00 in0.0 mm 0.00 in0.0 mm
01:14 AM 50.9°F10.5°C 35.2°F1.8°C 55% 6.7 mph ESE10.8 kmh ESE 8.1 mph13.0 kmh 30.09 in1019.0 mb 0.00 in0.0 mm 0.00 in0.0 mm 0.00 in0.0 mm
01:16 AM 50.7°F10.4°C 35.1°F1.7°C 55% 6.7 mph ESE10.8 kmh ESE 7.8 mph12.6 kmh 30.09 in1019.0 mb 0.00 in0.0 mm 0.00 in0.0 mm 0.00 in0.0 mm
01:18 AM 50.7°F10.4°C 35.6°F2.0°C 56% 6.9 mph SE11.1 kmh SE 8.9 mph14.3 kmh 30.09 in1019.0 mb 0.00 in0.0 mm 0.00 in0.0 mm 0.00 in0.0 mm
01:20 AM 50.7°F10.4°C 35.6°F2.0°C 56% 7.4 mph ESE11.9 kmh ESE 8.9 mph14.3 kmh 30.09 in1019.0 mb 0.00 in0.0 mm 0.00 in0.0 mm 0.00 in0.0 mm
01:23 AM 50.5°F10.3°C 35.4°F1.9°C 56% 7.6 mph ESE12.2 kmh ESE 9.2 mph14.8 kmh 30.08 in1018.6 mb 0.00 in0.0 mm 0.00 in0.0 mm 0.00 in0.0 mm
01:25 AM 50.5°F10.3°C 35.4°F1.9°C 56% 7.6 mph SE12.2 kmh SE 9.2 mph14.8 kmh 30.08 in1018.6 mb 0.00 in0.0 mm 0.00 in0.0 mm 0.00 in0.0 mm
01:27 AM 50.4°F10.2°C 35.2°F1.8°C 56% 7.6 mph ESE12.2 kmh ESE 8.9 mph14.3 kmh 30.08 in1018.6 mb 0.00 in0.0 mm 0.00 in0.0 mm 0.00 in0.0 mm
01:29 AM 50.5°F10.3°C 35.4°F1.9°C 56% 7.4 mph ESE11.9 kmh ESE 8.7 mph14.0 kmh 30.08 in1018.6 mb 0.00 in0.0 mm 0.00 in0.0 mm 0.00 in0.0 mm
01:32 AM 50.5°F10.3°C 35.4°F1.9°C 56% 6.5 mph ESE10.5 kmh ESE 8.1 mph13.0 kmh 30.08 in1018.6 mb 0.00 in0.0 mm 0.00 in0.0 mm 0.00 in0.0 mm
01:34 AM 50.5°F10.3°C 35.1°F1.7°C 55% 6.3 mph ESE10.1 kmh ESE 7.2 mph11.6 kmh 30.07 in1018.3 mb 0.00 in0.0 mm 0.00 in0.0 mm 0.00 in0.0 mm
01:36 AM 50.7°F10.4°C 35.1°F1.7°C 55% 6.9 mph ESE11.1 kmh ESE 8.3 mph13.4 kmh 30.07 in1018.3 mb 0.00 in0.0 mm 0.00 in0.0 mm 0.00 in0.0 mm
01:38 AM 50.9°F10.5°C 34.9°F1.6°C 54% 6.7 mph ESE10.8 kmh ESE 9.2 mph14.8 kmh 30.07 in1018.3 mb 0.00 in0.0 mm 0.00 in0.0 mm 0.00 in0.0 mm
01:41 AM 51.1°F10.6°C 35.1°F1.7°C 54% 6.7 mph SE10.8 kmh SE 8.3 mph13.4 kmh 30.07 in1018.3 mb 0.00 in0.0 mm 0.00 in0.0 mm 0.00 in0.0 mm
01:43 AM 51.1°F10.6°C 35.1°F1.7°C 54% 6.7 mph ESE10.8 kmh ESE 8.5 mph13.7 kmh 30.07 in1018.3 mb 0.00 in0.0 mm 0.00 in0.0 mm 0.00 in0.0 mm
01:45 AM 51.3°F10.7°C 35.2°F1.8°C 54% 6.5 mph ESE10.5 kmh ESE 9.8 mph15.8 kmh 30.07 in1018.3 mb 0.00 in0.0 mm 0.00 in0.0 mm 0.00 in0.0 mm
01:47 AM 51.4°F10.8°C 34.9°F1.6°C 53% 6.9 mph ESE11.1 kmh ESE 8.5 mph13.7 kmh 30.07 in1018.3 mb 0.00 in0.0 mm 0.00 in0.0 mm 0.00 in0.0 mm
01:49 AM 51.3°F10.7°C 34.7°F1.5°C 53% 6.7 mph SE10.8 kmh SE 10.1 mph16.3 kmh 30.07 in1018.3 mb 0.00 in0.0 mm 0.00 in0.0 mm 0.00 in0.0 mm
01:52 AM 51.1°F10.6°C 34.5°F1.4°C 53% 6.5 mph SE10.5 kmh SE 7.2 mph11.6 kmh 30.07 in1018.3 mb 0.00 in0.0 mm 0.00 in0.0 mm 0.00 in0.0 mm
01:54 AM 51.1°F10.6°C 34.5°F1.4°C 53% 6.5 mph SE10.5 kmh SE 8.1 mph13.0 kmh 30.07 in1018.3 mb 0.00 in0.0 mm 0.00 in0.0 mm 0.00 in0.0 mm
01:56 AM 50.9°F10.5°C 34.3°F1.3°C 53% 5.8 mph ESE9.3 kmh ESE 7.8 mph12.6 kmh 30.07 in1018.3 mb 0.00 in0.0 mm 0.00 in0.0 mm 0.00 in0.0 mm
01:58 AM 50.7°F10.4°C 34.2°F1.2°C 53% 6.3 mph SE10.1 kmh SE 8.1 mph13.0 kmh 30.07 in1018.3 mb 0.00 in0.0 mm 0.00 in0.0 mm 0.00 in0.0 mm
02:06 AM 50.4°F10.2°C 34.3°F1.3°C 54% 6.7 mph ESE10.8 kmh ESE -- 30.07 in1018.3 mb 0.00 in0.0 mm 0.00 in0.0 mm 0.00 in0.0 mm
02:08 AM 50.4°F10.2°C 34.9°F1.6°C 55% 5.1 mph ESE8.2 kmh ESE 8.5 mph13.7 kmh 30.06 in1017.9 mb 0.00 in0.0 mm 0.00 in0.0 mm 0.00 in0.0 mm
02:11 AM 50.2°F10.1°C 34.7°F1.5°C 55% 6.3 mph ESE10.1 kmh ESE 8.7 mph14.0 kmh 30.07 in1018.3 mb 0.00 in0.0 mm 0.00 in0.0 mm 0.00 in0.0 mm
02:13 AM 50.2°F10.1°C 34.7°F1.5°C 55% 5.8 mph ESE9.3 kmh ESE 6.9 mph11.1 kmh 30.06 in1017.9 mb 0.00 in0.0 mm 0.00 in0.0 mm 0.00 in0.0 mm
02:15 AM 50.2°F10.1°C 34.7°F1.5°C 55% 5.8 mph ESE9.3 kmh ESE 6.9 mph11.1 kmh 30.07 in1018.3 mb 0.00 in0.0 mm 0.00 in0.0 mm 0.00 in0.0 mm
02:17 AM 49.8°F9.9°C 34.7°F1.5°C 56% 5.6 mph SE9.0 kmh SE 6.0 mph9.7 kmh 30.06 in1017.9 mb 0.00 in0.0 mm 0.00 in0.0 mm 0.00 in0.0 mm
02:19 AM 49.8°F9.9°C 34.7°F1.5°C 56% 5.8 mph ESE9.3 kmh ESE 6.9 mph11.1 kmh 30.06 in1017.9 mb 0.00 in0.0 mm 0.00 in0.0 mm 0.00 in0.0 mm
02:21 AM 49.8°F9.9°C 34.7°F1.5°C 56% 6.5 mph ESE10.5 kmh ESE 9.2 mph14.8 kmh 30.06 in1017.9 mb 0.00 in0.0 mm 0.00 in0.0 mm 0.00 in0.0 mm
02:23 AM 49.8°F9.9°C 34.3°F1.3°C 55% 6.3 mph SE10.1 kmh SE 7.8 mph12.6 kmh 30.06 in1017.9 mb 0.00 in0.0 mm 0.00 in0.0 mm 0.00 in0.0 mm
02:25 AM 49.8°F9.9°C 34.3°F1.3°C 55% 6.3 mph ESE10.1 kmh ESE 7.8 mph12.6 kmh 30.06 in1017.9 mb 0.00 in0.0 mm 0.00 in0.0 mm 0.00 in0.0 mm
02:28 AM 50.2°F10.1°C 34.2°F1.2°C 54% 6.0 mph ESE9.7 kmh ESE 6.9 mph11.1 kmh 30.06 in1017.9 mb 0.00 in0.0 mm 0.00 in0.0 mm 0.00 in0.0 mm
02:30 AM 50.4°F10.2°C 33.8°F1.0°C 53% 6.0 mph SE9.7 kmh SE 6.9 mph11.1 kmh 30.06 in1017.9 mb 0.00 in0.0 mm 0.00 in0.0 mm 0.00 in0.0 mm
02:32 AM 50.5°F10.3°C 34.0°F1.1°C 53% 5.4 mph SE8.7 kmh SE 6.5 mph10.5 kmh 30.06 in1017.9 mb 0.00 in0.0 mm 0.00 in0.0 mm 0.00 in0.0 mm
02:34 AM 50.7°F10.4°C 34.2°F1.2°C 53% 5.6 mph SE9.0 kmh SE 6.9 mph11.1 kmh 30.06 in1017.9 mb 0.00 in0.0 mm 0.00 in0.0 mm 0.00 in0.0 mm
02:36 AM 50.7°F10.4°C 33.8°F1.0°C 52% 5.4 mph SE8.7 kmh SE 6.9 mph11.1 kmh 30.06 in1017.9 mb 0.00 in0.0 mm 0.00 in0.0 mm 0.00 in0.0 mm
02:39 AM 50.9°F10.5°C 33.4°F0.8°C 51% 4.9 mph SE7.9 kmh SE 6.0 mph9.7 kmh 30.06 in1017.9 mb 0.00 in0.0 mm 0.00 in0.0 mm 0.00 in0.0 mm
02:41 AM 51.3°F10.7°C 32.7°F0.4°C 49% 4.5 mph SE7.2 kmh SE 5.8 mph9.3 kmh 30.06 in1017.9 mb 0.00 in0.0 mm 0.00 in0.0 mm 0.00 in0.0 mm
02:43 AM 51.4°F10.8°C 32.9°F0.5°C 49% 4.0 mph SSE6.4 kmh SSE 4.0 mph6.4 kmh 30.06 in1017.9 mb 0.00 in0.0 mm 0.00 in0.0 mm 0.00 in0.0 mm
02:45 AM 51.6°F10.9°C 32.5°F0.3°C 48% 4.0 mph SE6.4 kmh SE 4.7 mph7.6 kmh 30.06 in1017.9 mb 0.00 in0.0 mm 0.00 in0.0 mm 0.00 in0.0 mm
02:47 AM 51.4°F10.8°C 32.4°F0.2°C 48% 3.4 mph SE5.5 kmh SE 3.1 mph5.0 kmh 30.06 in1017.9 mb 0.00 in0.0 mm 0.00 in0.0 mm 0.00 in0.0 mm
02:49 AM 51.6°F10.9°C 32.5°F0.3°C 48% 3.1 mph ESE5.0 kmh ESE 3.4 mph5.5 kmh 30.05 in1017.6 mb 0.00 in0.0 mm 0.00 in0.0 mm 0.00 in0.0 mm
02:52 AM 51.6°F10.9°C 32.5°F0.3°C 48% 2.9 mph SE4.7 kmh SE 3.4 mph5.5 kmh 30.06 in1017.9 mb 0.00 in0.0 mm 0.00 in0.0 mm 0.00 in0.0 mm
02:54 AM 51.6°F10.9°C 32.5°F0.3°C 48% 3.1 mph SSE5.0 kmh SSE 3.8 mph6.1 kmh 30.06 in1017.9 mb 0.00 in0.0 mm 0.00 in0.0 mm 0.00 in0.0 mm
02:56 AM 51.6°F10.9°C 32.0°F0.0°C 47% 2.7 mph SE4.3 kmh SE 2.9 mph4.7 kmh 30.06 in1017.9 mb 0.00 in0.0 mm 0.00 in0.0 mm 0.00 in0.0 mm
02:58 AM 52.0°F11.1°C 32.4°F0.2°C 47% 2.7 mph SSE4.3 kmh SSE 2.9 mph4.7 kmh 30.06 in1017.9 mb 0.00 in0.0 mm 0.00 in0.0 mm 0.00 in0.0 mm
03:00 AM 52.2°F11.2°C 32.0°F0.0°C 46% 2.9 mph SE4.7 kmh SE 3.1 mph5.0 kmh 30.06 in1017.9 mb 0.00 in0.0 mm 0.00 in0.0 mm 0.00 in0.0 mm
03:03 AM 52.3°F11.3°C 32.2°F0.1°C 46% 3.4 mph ESE5.5 kmh ESE 5.1 mph8.2 kmh 30.06 in1017.9 mb 0.00 in0.0 mm 0.00 in0.0 mm 0.00 in0.0 mm
03:05 AM 52.3°F11.3°C 31.6°F-0.2°C 45% 4.0 mph ESE6.4 kmh ESE 5.4 mph8.7 kmh 30.05 in1017.6 mb 0.00 in0.0 mm 0.00 in0.0 mm 0.00 in0.0 mm
03:07 AM 52.3°F11.3°C 31.6°F-0.2°C 45% 4.0 mph SSE6.4 kmh SSE 5.1 mph8.2 kmh 30.05 in1017.6 mb 0.00 in0.0 mm 0.00 in0.0 mm 0.00 in0.0 mm
03:09 AM 52.2°F11.2°C 31.5°F-0.3°C 45% 4.9 mph ESE7.9 kmh ESE 6.9 mph11.1 kmh 30.05 in1017.6 mb 0.00 in0.0 mm 0.00 in0.0 mm 0.00 in0.0 mm
03:12 AM 52.2°F11.2°C 31.5°F-0.3°C 45% 5.1 mph ESE8.2 kmh ESE 6.3 mph10.1 kmh 30.04 in1017.3 mb 0.00 in0.0 mm 0.00 in0.0 mm 0.00 in0.0 mm
03:14 AM 52.3°F11.3°C 31.6°F-0.2°C 45% 4.9 mph SE7.9 kmh SE 5.8 mph9.3 kmh 30.04 in1017.3 mb 0.00 in0.0 mm 0.00 in0.0 mm 0.00 in0.0 mm
03:16 AM 52.5°F11.4°C 31.3°F-0.4°C 44% 4.3 mph SE6.9 kmh SE 4.5 mph7.2 kmh 30.04 in1017.3 mb 0.00 in0.0 mm 0.00 in0.0 mm 0.00 in0.0 mm
03:18 AM 52.5°F11.4°C 31.3°F-0.4°C 44% 4.7 mph SE7.6 kmh SE 5.8 mph9.3 kmh 30.04 in1017.3 mb 0.00 in0.0 mm 0.00 in0.0 mm 0.00 in0.0 mm
03:21 AM 52.3°F11.3°C 31.6°F-0.2°C 45% 4.0 mph SSE6.4 kmh SSE 6.0 mph9.7 kmh 30.04 in1017.3 mb 0.00 in0.0 mm 0.00 in0.0 mm 0.00 in0.0 mm
03:23 AM 52.0°F11.1°C 31.3°F-0.4°C 45% 4.3 mph ESE6.9 kmh ESE 6.9 mph11.1 kmh 30.04 in1017.3 mb 0.00 in0.0 mm 0.00 in0.0 mm 0.00 in0.0 mm
03:25 AM 52.2°F11.2°C 31.5°F-0.3°C 45% 4.9 mph SE7.9 kmh SE 6.7 mph10.8 kmh 30.04 in1017.3 mb 0.00 in0.0 mm 0.00 in0.0 mm 0.00 in0.0 mm
03:27 AM 52.3°F11.3°C 31.6°F-0.2°C 45% 5.4 mph SSE8.7 kmh SSE 5.8 mph9.3 kmh 30.04 in1017.3 mb 0.00 in0.0 mm 0.00 in0.0 mm 0.00 in0.0 mm
03:30 AM 52.2°F11.2°C 31.5°F-0.3°C 45% 6.0 mph SE9.7 kmh SE 7.6 mph12.2 kmh 30.04 in1017.3 mb 0.00 in0.0 mm 0.00 in0.0 mm 0.00 in0.0 mm
03:32 AM 52.0°F11.1°C 31.3°F-0.4°C 45% 6.0 mph SE9.7 kmh SE 6.7 mph10.8 kmh 30.04 in1017.3 mb 0.00 in0.0 mm 0.00 in0.0 mm 0.00 in0.0 mm
03:34 AM 52.2°F11.2°C 30.9°F-0.6°C 44% 5.8 mph SE9.3 kmh SE 7.4 mph11.9 kmh 30.04 in1017.3 mb 0.00 in0.0 mm 0.00 in0.0 mm 0.00 in0.0 mm
03:36 AM 52.2°F11.2°C 31.5°F-0.3°C 45% 5.6 mph SE9.0 kmh SE 6.0 mph9.7 kmh 30.04 in1017.3 mb 0.00 in0.0 mm 0.00 in0.0 mm 0.00 in0.0 mm
03:38 AM 52.2°F11.2°C 31.5°F-0.3°C 45% 5.8 mph SE9.3 kmh SE 7.4 mph11.9 kmh 30.04 in1017.3 mb 0.00 in0.0 mm 0.00 in0.0 mm 0.00 in0.0 mm
03:41 AM 52.3°F11.3°C 31.6°F-0.2°C 45% 6.5 mph ESE10.5 kmh ESE 7.8 mph12.6 kmh 30.04 in1017.3 mb 0.00 in0.0 mm 0.00 in0.0 mm 0.00 in0.0 mm
03:43 AM 52.3°F11.3°C 31.6°F-0.2°C 45% 6.5 mph ESE10.5 kmh ESE 7.6 mph12.2 kmh 30.04 in1017.3 mb 0.00 in0.0 mm 0.00 in0.0 mm 0.00 in0.0 mm
03:45 AM 52.3°F11.3°C 31.6°F-0.2°C 45% 6.0 mph SE9.7 kmh SE 6.7 mph10.8 kmh 30.04 in1017.3 mb 0.00 in0.0 mm 0.00 in0.0 mm 0.00 in0.0 mm
03:48 AM 52.2°F11.2°C 31.5°F-0.3°C 45% 5.6 mph ESE9.0 kmh ESE 6.5 mph10.5 kmh 30.03 in1016.9 mb 0.00 in0.0 mm 0.00 in0.0 mm 0.00 in0.0 mm
03:50 AM 52.2°F11.2°C 31.5°F-0.3°C 45% 5.4 mph SE8.7 kmh SE 5.1 mph8.2 kmh 30.03 in1016.9 mb 0.00 in0.0 mm 0.00 in0.0 mm 0.00 in0.0 mm
03:52 AM 52.0°F11.1°C 31.3°F-0.4°C 45% 6.3 mph SE10.1 kmh SE 8.3 mph13.4 kmh 30.03 in1016.9 mb 0.00 in0.0 mm 0.00 in0.0 mm 0.00 in0.0 mm
03:54 AM 52.0°F11.1°C 31.3°F-0.4°C 45% 6.5 mph ESE10.5 kmh ESE 7.8 mph12.6 kmh 30.03 in1016.9 mb 0.00 in0.0 mm 0.00 in0.0 mm 0.00 in0.0 mm
03:56 AM 51.8°F11.0°C 31.1°F-0.5°C 45% 5.8 mph ESE9.3 kmh ESE 6.5 mph10.5 kmh 30.03 in1016.9 mb 0.00 in0.0 mm 0.00 in0.0 mm 0.00 in0.0 mm
03:58 AM 51.8°F11.0°C 31.1°F-0.5°C 45% 6.0 mph ESE9.7 kmh ESE 7.2 mph11.6 kmh 30.03 in1016.9 mb 0.00 in0.0 mm 0.00 in0.0 mm 0.00 in0.0 mm
04:00 AM 52.0°F11.1°C 30.7°F-0.7°C 44% 6.0 mph SE9.7 kmh SE 7.2 mph11.6 kmh 30.03 in1016.9 mb 0.00 in0.0 mm 0.00 in0.0 mm 0.00 in0.0 mm
04:02 AM 52.2°F11.2°C 30.9°F-0.6°C 44% 6.0 mph SE9.7 kmh SE 6.7 mph10.8 kmh 30.03 in1016.9 mb 0.00 in0.0 mm 0.00 in0.0 mm 0.00 in0.0 mm
04:05 AM 52.2°F11.2°C 31.5°F-0.3°C 45% 6.3 mph ESE10.1 kmh ESE 7.6 mph12.2 kmh 30.03 in1016.9 mb 0.00 in0.0 mm 0.00 in0.0 mm 0.00 in0.0 mm
04:07 AM 52.2°F11.2°C 31.5°F-0.3°C 45% 6.7 mph ESE10.8 kmh ESE 8.3 mph13.4 kmh 30.03 in1016.9 mb 0.00 in0.0 mm 0.00 in0.0 mm 0.00 in0.0 mm
04:09 AM 52.0°F11.1°C 31.3°F-0.4°C 45% 6.3 mph ESE10.1 kmh ESE 7.2 mph11.6 kmh 30.03 in1016.9 mb 0.00 in0.0 mm 0.00 in0.0 mm 0.00 in0.0 mm
04:11 AM 51.8°F11.0°C 31.6°F-0.2°C 46% 6.0 mph ESE9.7 kmh ESE 6.5 mph10.5 kmh 30.03 in1016.9 mb 0.00 in0.0 mm 0.00 in0.0 mm 0.00 in0.0 mm
04:13 AM 52.0°F11.1°C 31.8°F-0.1°C 46% 5.6 mph SE9.0 kmh SE 6.0 mph9.7 kmh 30.03 in1016.9 mb 0.00 in0.0 mm 0.00 in0.0 mm 0.00 in0.0 mm
04:15 AM 52.0°F11.1°C 31.3°F-0.4°C 45% 5.6 mph ESE9.0 kmh ESE 6.5 mph10.5 kmh 30.03 in1016.9 mb 0.00 in0.0 mm 0.00 in0.0 mm 0.00 in0.0 mm
04:18 AM 52.2°F11.2°C 31.5°F-0.3°C 45% 5.1 mph ESE8.2 kmh ESE 6.9 mph11.1 kmh 30.03 in1016.9 mb 0.00 in0.0 mm 0.00 in0.0 mm 0.00 in0.0 mm
04:20 AM 52.3°F11.3°C 31.6°F-0.2°C 45% 5.6 mph ESE9.0 kmh ESE 6.7 mph10.8 kmh 30.03 in1016.9 mb 0.00 in0.0 mm 0.00 in0.0 mm 0.00 in0.0 mm
04:22 AM 52.3°F11.3°C 31.6°F-0.2°C 45% 5.8 mph SE9.3 kmh SE 7.4 mph11.9 kmh 30.02 in1016.6 mb 0.00 in0.0 mm 0.00 in0.0 mm 0.00 in0.0 mm
04:24 AM 52.3°F11.3°C 31.6°F-0.2°C 45% 6.3 mph SE10.1 kmh SE 7.4 mph11.9 kmh 30.02 in1016.6 mb 0.00 in0.0 mm 0.00 in0.0 mm 0.00 in0.0 mm
04:27 AM 52.5°F11.4°C 31.3°F-0.4°C 44% 6.3 mph SE10.1 kmh SE 7.8 mph12.6 kmh 30.02 in1016.6 mb 0.00 in0.0 mm 0.00 in0.0 mm 0.00 in0.0 mm
04:29 AM 52.5°F11.4°C 31.3°F-0.4°C 44% 5.8 mph SE9.3 kmh SE 6.5 mph10.5 kmh 30.02 in1016.6 mb 0.00 in0.0 mm 0.00 in0.0 mm 0.00 in0.0 mm
04:31 AM 52.5°F11.4°C 31.3°F-0.4°C 44% 5.6 mph SE9.0 kmh SE 6.0 mph9.7 kmh 30.02 in1016.6 mb 0.00 in0.0 mm 0.00 in0.0 mm 0.00 in0.0 mm
04:33 AM 52.5°F11.4°C 31.3°F-0.4°C 44% 6.0 mph SE9.7 kmh SE 7.4 mph11.9 kmh 30.02 in1016.6 mb 0.00 in0.0 mm 0.00 in0.0 mm 0.00 in0.0 mm
04:35 AM 52.7°F11.5°C 30.7°F-0.7°C 43% 6.5 mph SE10.5 kmh SE 8.3 mph13.4 kmh 30.02 in1016.6 mb 0.00 in0.0 mm 0.00 in0.0 mm 0.00 in0.0 mm
04:38 AM 52.9°F11.6°C 30.9°F-0.6°C 43% 6.3 mph ESE10.1 kmh ESE 6.5 mph10.5 kmh 30.02 in1016.6 mb 0.00 in0.0 mm 0.00 in0.0 mm 0.00 in0.0 mm
04:40 AM 52.7°F11.5°C 30.7°F-0.7°C 43% 5.8 mph SE9.3 kmh SE 6.5 mph10.5 kmh 30.02 in1016.6 mb 0.00 in0.0 mm 0.00 in0.0 mm 0.00 in0.0 mm
04:42 AM 52.3°F11.3°C 31.1°F-0.5°C 44% 5.6 mph SE9.0 kmh SE 6.0 mph9.7 kmh 30.02 in1016.6 mb 0.00 in0.0 mm 0.00 in0.0 mm 0.00 in0.0 mm
04:44 AM 52.2°F11.2°C 30.9°F-0.6°C 44% 5.4 mph ESE8.7 kmh ESE 6.0 mph9.7 kmh 30.02 in1016.6 mb 0.00 in0.0 mm 0.00 in0.0 mm 0.00 in0.0 mm
04:47 AM 52.2°F11.2°C 30.9°F-0.6°C 44% 5.4 mph SE8.7 kmh SE 6.3 mph10.1 kmh 30.02 in1016.6 mb 0.00 in0.0 mm 0.00 in0.0 mm 0.00 in0.0 mm
04:49 AM 52.2°F11.2°C 30.9°F-0.6°C 44% 4.7 mph ESE7.6 kmh ESE 5.6 mph9.0 kmh 30.02 in1016.6 mb 0.00 in0.0 mm 0.00 in0.0 mm 0.00 in0.0 mm
04:51 AM 52.3°F11.3°C 31.1°F-0.5°C 44% 4.0 mph SE6.4 kmh SE 5.1 mph8.2 kmh 30.02 in1016.6 mb 0.00 in0.0 mm 0.00 in0.0 mm 0.00 in0.0 mm
04:53 AM 52.3°F11.3°C 31.1°F-0.5°C 44% 3.6 mph SE5.8 kmh SE 4.5 mph7.2 kmh 30.02 in1016.6 mb 0.00 in0.0 mm 0.00 in0.0 mm 0.00 in0.0 mm
04:56 AM 52.2°F11.2°C 30.9°F-0.6°C 44% 3.6 mph SSE5.8 kmh SSE 4.5 mph7.2 kmh 30.02 in1016.6 mb 0.00 in0.0 mm 0.00 in0.0 mm 0.00 in0.0 mm
04:58 AM 52.2°F11.2°C 30.9°F-0.6°C 44% 4.0 mph ESE6.4 kmh ESE 6.5 mph10.5 kmh 30.01 in1016.3 mb 0.00 in0.0 mm 0.00 in0.0 mm 0.00 in0.0 mm
05:00 AM 52.3°F11.3°C 31.1°F-0.5°C 44% 5.4 mph SE8.7 kmh SE 7.8 mph12.6 kmh 30.02 in1016.6 mb 0.00 in0.0 mm 0.00 in0.0 mm 0.00 in0.0 mm
05:02 AM 52.5°F11.4°C 31.3°F-0.4°C 44% 6.0 mph ESE9.7 kmh ESE 7.4 mph11.9 kmh 30.01 in1016.3 mb 0.00 in0.0 mm 0.00 in0.0 mm 0.00 in0.0 mm
05:05 AM 52.5°F11.4°C 31.3°F-0.4°C 44% 5.8 mph ESE9.3 kmh ESE 7.6 mph12.2 kmh 30.01 in1016.3 mb 0.00 in0.0 mm 0.00 in0.0 mm 0.00 in0.0 mm
05:07 AM 52.7°F11.5°C 31.5°F-0.3°C 44% 5.4 mph SE8.7 kmh SE 6.3 mph10.1 kmh 30.01 in1016.3 mb 0.00 in0.0 mm 0.00 in0.0 mm 0.00 in0.0 mm
05:09 AM 52.5°F11.4°C 31.3°F-0.4°C 44% 4.9 mph ESE7.9 kmh ESE 6.3 mph10.1 kmh 30.01 in1016.3 mb 0.00 in0.0 mm 0.00 in0.0 mm 0.00 in0.0 mm
05:11 AM 52.3°F11.3°C 31.1°F-0.5°C 44% 5.4 mph SE8.7 kmh SE 6.9 mph11.1 kmh 30.01 in1016.3 mb 0.00 in0.0 mm 0.00 in0.0 mm 0.00 in0.0 mm
05:14 AM 52.3°F11.3°C 30.6°F-0.8°C 43% 5.8 mph SE9.3 kmh SE 6.9 mph11.1 kmh 30.01 in1016.3 mb 0.00 in0.0 mm 0.00 in0.0 mm 0.00 in0.0 mm
05:16 AM 52.3°F11.3°C 31.1°F-0.5°C 44% 5.6 mph SE9.0 kmh SE 6.7 mph10.8 kmh 30.01 in1016.3 mb 0.00 in0.0 mm 0.00 in0.0 mm 0.00 in0.0 mm
05:18 AM 52.2°F11.2°C 30.9°F-0.6°C 44% 5.6 mph ESE9.0 kmh ESE 6.3 mph10.1 kmh 30.01 in1016.3 mb 0.00 in0.0 mm 0.00 in0.0 mm 0.00 in0.0 mm
05:20 AM 52.0°F11.1°C 30.7°F-0.7°C 44% 6.0 mph SE9.7 kmh SE 7.2 mph11.6 kmh 30.00 in1015.9 mb 0.00 in0.0 mm 0.00 in0.0 mm 0.00 in0.0 mm
05:23 AM 52.0°F11.1°C 30.7°F-0.7°C 44% 5.8 mph SE9.3 kmh SE 6.9 mph11.1 kmh 30.01 in1016.3 mb 0.00 in0.0 mm 0.00 in0.0 mm 0.00 in0.0 mm
05:25 AM 52.2°F11.2°C 30.9°F-0.6°C 44% 6.0 mph ESE9.7 kmh ESE 8.1 mph13.0 kmh 30.00 in1015.9 mb 0.00 in0.0 mm 0.00 in0.0 mm 0.00 in0.0 mm
05:27 AM 52.2°F11.2°C 30.9°F-0.6°C 44% 6.3 mph ESE10.1 kmh ESE 7.6 mph12.2 kmh 30.00 in1015.9 mb 0.00 in0.0 mm 0.00 in0.0 mm 0.00 in0.0 mm
05:29 AM 52.0°F11.1°C 30.7°F-0.7°C 44% 6.9 mph SE11.1 kmh SE 8.1 mph13.0 kmh 30.00 in1015.9 mb 0.00 in0.0 mm 0.00 in0.0 mm 0.00 in0.0 mm
05:32 AM 52.0°F11.1°C 31.3°F-0.4°C 45% 7.2 mph ESE11.6 kmh ESE 8.1 mph13.0 kmh 30.00 in1015.9 mb 0.00 in0.0 mm 0.00 in0.0 mm 0.00 in0.0 mm
05:34 AM 51.8°F11.0°C 31.1°F-0.5°C 45% 6.7 mph ESE10.8 kmh ESE 8.1 mph13.0 kmh 30.00 in1015.9 mb 0.00 in0.0 mm 0.00 in0.0 mm 0.00 in0.0 mm
05:36 AM 51.8°F11.0°C 31.1°F-0.5°C 45% 6.5 mph ESE10.5 kmh ESE 7.6 mph12.2 kmh 30.01 in1016.3 mb 0.00 in0.0 mm 0.00 in0.0 mm 0.00 in0.0 mm
05:38 AM 51.6°F10.9°C 30.9°F-0.6°C 45% 5.8 mph SE9.3 kmh SE 6.9 mph11.1 kmh 30.00 in1015.9 mb 0.00 in0.0 mm 0.00 in0.0 mm 0.00 in0.0 mm
05:41 AM 51.4°F10.8°C 31.3°F-0.4°C 46% 5.6 mph SE9.0 kmh SE 6.9 mph11.1 kmh 30.00 in1015.9 mb 0.00 in0.0 mm 0.00 in0.0 mm 0.00 in0.0 mm
05:43 AM 51.3°F10.7°C 31.1°F-0.5°C 46% 6.3 mph SE10.1 kmh SE 7.8 mph12.6 kmh 30.01 in1016.3 mb 0.00 in0.0 mm 0.00 in0.0 mm 0.00 in0.0 mm
05:45 AM 51.4°F10.8°C 31.3°F-0.4°C 46% 5.8 mph SE9.3 kmh SE 7.4 mph11.9 kmh 30.00 in1015.9 mb 0.00 in0.0 mm 0.00 in0.0 mm 0.00 in0.0 mm
05:47 AM 51.6°F10.9°C 31.5°F-0.3°C 46% 5.4 mph SE8.7 kmh SE 5.8 mph9.3 kmh 30.00 in1015.9 mb 0.00 in0.0 mm 0.00 in0.0 mm 0.00 in0.0 mm
05:50 AM 51.6°F10.9°C 31.5°F-0.3°C 46% 5.4 mph SE8.7 kmh SE 6.3 mph10.1 kmh 30.00 in1015.9 mb 0.00 in0.0 mm 0.00 in0.0 mm 0.00 in0.0 mm
05:52 AM 51.4°F10.8°C 31.3°F-0.4°C 46% 5.8 mph SE9.3 kmh SE 7.2 mph11.6 kmh 30.00 in1015.9 mb 0.00 in0.0 mm 0.00 in0.0 mm 0.00 in0.0 mm
05:54 AM 51.4°F10.8°C 31.8°F-0.1°C 47% 5.8 mph E9.3 kmh E 6.9 mph11.1 kmh 30.00 in1015.9 mb 0.00 in0.0 mm 0.00 in0.0 mm 0.00 in0.0 mm
05:56 AM 51.6°F10.9°C 32.0°F0.0°C 47% 6.3 mph SE10.1 kmh SE 8.3 mph13.4 kmh 30.00 in1015.9 mb 0.00 in0.0 mm 0.00 in0.0 mm 0.00 in0.0 mm
05:58 AM 51.6°F10.9°C 32.0°F0.0°C 47% 5.4 mph SE8.7 kmh SE 7.4 mph11.9 kmh 30.00 in1015.9 mb 0.00 in0.0 mm 0.00 in0.0 mm 0.00 in0.0 mm
06:00 AM 51.6°F10.9°C 32.0°F0.0°C 47% 5.6 mph SE9.0 kmh SE 7.4 mph11.9 kmh 30.00 in1015.9 mb 0.00 in0.0 mm 0.00 in0.0 mm 0.00 in0.0 mm
06:03 AM 51.6°F10.9°C 32.0°F0.0°C 47% 6.0 mph SSE9.7 kmh SSE 7.6 mph12.2 kmh 29.99 in1015.6 mb 0.00 in0.0 mm 0.00 in0.0 mm 0.00 in0.0 mm
06:05 AM 51.6°F10.9°C 32.0°F0.0°C 47% 6.3 mph E10.1 kmh E 8.9 mph14.3 kmh 29.99 in1015.6 mb 0.00 in0.0 mm 0.00 in0.0 mm 0.00 in0.0 mm
06:07 AM 51.4°F10.8°C 31.8°F-0.1°C 47% 6.5 mph SE10.5 kmh SE 8.9 mph14.3 kmh 29.99 in1015.6 mb 0.00 in0.0 mm 0.00 in0.0 mm 0.00 in0.0 mm
06:09 AM 51.3°F10.7°C 32.2°F0.1°C 48% 6.7 mph E10.8 kmh E 7.6 mph12.2 kmh 29.99 in1015.6 mb 0.00 in0.0 mm 0.00 in0.0 mm 0.00 in0.0 mm
06:11 AM 51.1°F10.6°C 32.0°F0.0°C 48% 6.5 mph ESE10.5 kmh ESE 7.4 mph11.9 kmh 30.00 in1015.9 mb 0.00 in0.0 mm 0.00 in0.0 mm 0.00 in0.0 mm
06:13 AM 50.7°F10.4°C 32.2°F0.1°C 49% 6.3 mph ESE10.1 kmh ESE 7.8 mph12.6 kmh 29.99 in1015.6 mb 0.00 in0.0 mm 0.00 in0.0 mm 0.00 in0.0 mm
06:15 AM 50.7°F10.4°C 32.2°F0.1°C 49% 5.8 mph ESE9.3 kmh ESE 6.7 mph10.8 kmh 30.00 in1015.9 mb 0.00 in0.0 mm 0.00 in0.0 mm 0.00 in0.0 mm
06:17 AM 50.5°F10.3°C 32.0°F0.0°C 49% 5.6 mph SE9.0 kmh SE 6.3 mph10.1 kmh 30.00 in1015.9 mb 0.00 in0.0 mm 0.00 in0.0 mm 0.00 in0.0 mm
06:20 AM 50.5°F10.3°C 32.5°F0.3°C 50% 5.4 mph SSE8.7 kmh SSE 6.5 mph10.5 kmh 30.00 in1015.9 mb 0.00 in0.0 mm 0.00 in0.0 mm 0.00 in0.0 mm
06:22 AM 50.5°F10.3°C 32.5°F0.3°C 50% 4.7 mph ESE7.6 kmh ESE 5.6 mph9.0 kmh 29.99 in1015.6 mb 0.00 in0.0 mm 0.00 in0.0 mm 0.00 in0.0 mm
06:24 AM 50.5°F10.3°C 32.5°F0.3°C 50% 4.0 mph E6.4 kmh E 5.4 mph8.7 kmh 29.99 in1015.6 mb 0.00 in0.0 mm 0.00 in0.0 mm 0.00 in0.0 mm
06:26 AM 50.4°F10.2°C 32.4°F0.2°C 50% 4.3 mph SE6.9 kmh SE 5.8 mph9.3 kmh 29.99 in1015.6 mb 0.00 in0.0 mm 0.00 in0.0 mm 0.00 in0.0 mm
06:29 AM 50.4°F10.2°C 32.4°F0.2°C 50% 4.7 mph ESE7.6 kmh ESE 6.7 mph10.8 kmh 29.99 in1015.6 mb 0.00 in0.0 mm 0.00 in0.0 mm 0.00 in0.0 mm
06:31 AM 50.4°F10.2°C 32.9°F0.5°C 51% 4.9 mph ESE7.9 kmh ESE 8.3 mph13.4 kmh 29.99 in1015.6 mb 0.00 in0.0 mm 0.00 in0.0 mm 0.00 in0.0 mm
06:33 AM 50.5°F10.3°C 33.1°F0.6°C 51% 5.8 mph ESE9.3 kmh ESE 8.9 mph14.3 kmh 30.00 in1015.9 mb 0.00 in0.0 mm 0.00 in0.0 mm 0.00 in0.0 mm
06:35 AM 50.4°F10.2°C 32.9°F0.5°C 51% 6.3 mph SE10.1 kmh SE 8.3 mph13.4 kmh 29.99 in1015.6 mb 0.00 in0.0 mm 0.00 in0.0 mm 0.00 in0.0 mm
06:37 AM 50.4°F10.2°C 32.9°F0.5°C 51% 6.5 mph ESE10.5 kmh ESE 8.3 mph13.4 kmh 30.00 in1015.9 mb 0.00 in0.0 mm 0.00 in0.0 mm 0.00 in0.0 mm
06:40 AM 50.2°F10.1°C 33.3°F0.7°C 52% 7.4 mph ESE11.9 kmh ESE 9.4 mph15.1 kmh 29.99 in1015.6 mb 0.00 in0.0 mm 0.00 in0.0 mm 0.00 in0.0 mm
06:42 AM 50.2°F10.1°C 33.3°F0.7°C 52% 7.2 mph ESE11.6 kmh ESE 8.3 mph13.4 kmh 30.00 in1015.9 mb 0.00 in0.0 mm 0.00 in0.0 mm 0.00 in0.0 mm
06:44 AM 50.0°F10.0°C 33.1°F0.6°C 52% 6.5 mph ESE10.5 kmh ESE 6.7 mph10.8 kmh 29.99 in1015.6 mb 0.00 in0.0 mm 0.00 in0.0 mm 0.00 in0.0 mm
06:46 AM 50.2°F10.1°C 33.3°F0.7°C 52% 6.5 mph SE10.5 kmh SE 7.6 mph12.2 kmh 30.00 in1015.9 mb 0.00 in0.0 mm 0.00 in0.0 mm 0.00 in0.0 mm
06:48 AM 50.0°F10.0°C 33.1°F0.6°C 52% 6.3 mph ESE10.1 kmh ESE 7.4 mph11.9 kmh 29.99 in1015.6 mb 0.00 in0.0 mm 0.00 in0.0 mm 0.00 in0.0 mm
06:51 AM 49.8°F9.9°C 32.9°F0.5°C 52% 6.5 mph SSE10.5 kmh SSE 8.9 mph14.3 kmh 29.99 in1015.6 mb 0.00 in0.0 mm 0.00 in0.0 mm 0.00 in0.0 mm
06:53 AM 50.0°F10.0°C 33.6°F0.9°C 53% 6.7 mph ESE10.8 kmh ESE 11.9 mph19.2 kmh 29.99 in1015.6 mb 0.00 in0.0 mm 0.00 in0.0 mm 0.00 in0.0 mm
06:55 AM 50.2°F10.1°C 33.6°F0.9°C 53% 6.3 mph SE10.1 kmh SE 7.6 mph12.2 kmh 29.99 in1015.6 mb 0.00 in0.0 mm 0.00 in0.0 mm 0.00 in0.0 mm
06:57 AM 50.4°F10.2°C 33.8°F1.0°C 53% 6.3 mph ESE10.1 kmh ESE 7.6 mph12.2 kmh 29.99 in1015.6 mb 0.00 in0.0 mm 0.00 in0.0 mm 0.00 in0.0 mm
06:59 AM 50.5°F10.3°C 33.6°F0.9°C 52% 7.2 mph E11.6 kmh E 9.6 mph15.4 kmh 29.99 in1015.6 mb 0.00 in0.0 mm 0.00 in0.0 mm 0.00 in0.0 mm
07:01 AM 50.9°F10.5°C 34.0°F1.1°C 52% 6.5 mph ESE10.5 kmh ESE 7.4 mph11.9 kmh 29.99 in1015.6 mb 0.00 in0.0 mm 0.00 in0.0 mm 0.00 in0.0 mm
07:04 AM 51.1°F10.6°C 34.0°F1.1°C 52% 6.0 mph SE9.7 kmh SE 6.3 mph10.1 kmh 29.99 in1015.6 mb 0.00 in0.0 mm 0.00 in0.0 mm 0.00 in0.0 mm
07:06 AM 51.3°F10.7°C 34.2°F1.2°C 52% 6.5 mph SE10.5 kmh SE 8.1 mph13.0 kmh 29.99 in1015.6 mb 0.00 in0.0 mm 0.00 in0.0 mm 0.00 in0.0 mm
07:08 AM 51.6°F10.9°C 34.5°F1.4°C 52% 6.3 mph SSE10.1 kmh SSE 7.6 mph12.2 kmh 29.99 in1015.6 mb 0.00 in0.0 mm 0.00 in0.0 mm 0.00 in0.0 mm
07:10 AM 51.6°F10.9°C 34.2°F1.2°C 51% 6.5 mph ESE10.5 kmh ESE 8.9 mph14.3 kmh 29.99 in1015.6 mb 0.00 in0.0 mm 0.00 in0.0 mm 0.00 in0.0 mm
07:12 AM 51.8°F11.0°C 34.2°F1.2°C 51% 6.5 mph ESE10.5 kmh ESE 7.8 mph12.6 kmh 29.99 in1015.6 mb 0.00 in0.0 mm 0.00 in0.0 mm 0.00 in0.0 mm
07:14 AM 52.0°F11.1°C 34.3°F1.3°C 51% 6.0 mph SE9.7 kmh SE 7.8 mph12.6 kmh 29.98 in1015.2 mb 0.00 in0.0 mm 0.00 in0.0 mm 0.00 in0.0 mm
07:17 AM 52.2°F11.2°C 34.5°F1.4°C 51% 6.0 mph SE9.7 kmh SE 7.8 mph12.6 kmh 29.99 in1015.6 mb 0.00 in0.0 mm 0.00 in0.0 mm 0.00 in0.0 mm
07:19 AM 52.3°F11.3°C 34.7°F1.5°C 51% 6.0 mph SE9.7 kmh SE 7.8 mph12.6 kmh 29.98 in1015.2 mb 0.00 in0.0 mm 0.00 in0.0 mm 0.00 in0.0 mm
07:21 AM 52.7°F11.5°C 35.1°F1.7°C 51% 5.6 mph SE9.0 kmh SE 8.1 mph13.0 kmh 29.98 in1015.2 mb 0.00 in0.0 mm 0.00 in0.0 mm 0.00 in0.0 mm
07:23 AM 52.9°F11.6°C 35.2°F1.8°C 51% 5.8 mph ESE9.3 kmh ESE 8.1 mph13.0 kmh 29.98 in1015.2 mb 0.00 in0.0 mm 0.00 in0.0 mm 0.00 in0.0 mm
07:26 AM 53.2°F11.8°C 35.6°F2.0°C 51% 5.8 mph E9.3 kmh E 7.8 mph12.6 kmh 29.98 in1015.2 mb 0.00 in0.0 mm 0.00 in0.0 mm 0.00 in0.0 mm
07:28 AM 53.4°F11.9°C 35.2°F1.8°C 50% 6.0 mph ESE9.7 kmh ESE 7.4 mph11.9 kmh 29.98 in1015.2 mb 0.00 in0.0 mm 0.00 in0.0 mm 0.00 in0.0 mm
07:30 AM 53.8°F12.1°C 35.6°F2.0°C 50% 5.8 mph SE9.3 kmh SE 7.8 mph12.6 kmh 29.98 in1015.2 mb 0.00 in0.0 mm 0.00 in0.0 mm 0.00 in0.0 mm
07:32 AM 54.0°F12.2°C 35.8°F2.1°C 50% 6.0 mph SE9.7 kmh SE 6.9 mph11.1 kmh 29.98 in1015.2 mb 0.00 in0.0 mm 0.00 in0.0 mm 0.00 in0.0 mm
07:34 AM 54.3°F12.4°C 35.6°F2.0°C 49% 5.8 mph ESE9.3 kmh ESE 6.7 mph10.8 kmh 29.99 in1015.6 mb 0.00 in0.0 mm 0.00 in0.0 mm 0.00 in0.0 mm
07:37 AM 54.5°F12.5°C 35.8°F2.1°C 49% 4.9 mph ESE7.9 kmh ESE 6.5 mph10.5 kmh 29.99 in1015.6 mb 0.00 in0.0 mm 0.00 in0.0 mm 0.00 in0.0 mm
07:39 AM 54.7°F12.6°C 36.0°F2.2°C 49% 5.1 mph ESE8.2 kmh ESE 5.8 mph9.3 kmh 29.98 in1015.2 mb 0.00 in0.0 mm 0.00 in0.0 mm 0.00 in0.0 mm
07:41 AM 55.0°F12.8°C 36.1°F2.3°C 49% 4.5 mph ESE7.2 kmh ESE 5.1 mph8.2 kmh 29.99 in1015.6 mb 0.00 in0.0 mm 0.00 in0.0 mm 0.00 in0.0 mm
07:44 AM 55.2°F12.9°C 36.3°F2.4°C 49% 3.8 mph ENE6.1 kmh ENE 4.7 mph7.6 kmh 29.99 in1015.6 mb 0.00 in0.0 mm 0.00 in0.0 mm 0.00 in0.0 mm
07:46 AM 55.8°F13.2°C 36.9°F2.7°C 49% 2.0 mph NNE3.2 kmh NNE 0.9 mph1.4 kmh 29.99 in1015.6 mb 0.00 in0.0 mm 0.00 in0.0 mm 0.00 in0.0 mm
07:48 AM 55.9°F13.3°C 37.0°F2.8°C 49% 1.1 mph NNE1.8 kmh NNE -- 29.98 in1015.2 mb 0.00 in0.0 mm 0.00 in0.0 mm 0.00 in0.0 mm
07:50 AM 56.5°F13.6°C 37.6°F3.1°C 49% 0.7 mph NE1.1 kmh NE 1.3 mph2.1 kmh 29.98 in1015.2 mb 0.00 in0.0 mm 0.00 in0.0 mm 0.00 in0.0 mm
07:53 AM 57.0°F13.9°C 38.1°F3.4°C 49% 0.4 mph ENE0.6 kmh ENE -- 29.98 in1015.2 mb 0.00 in0.0 mm 0.00 in0.0 mm 0.00 in0.0 mm
07:55 AM 57.4°F14.1°C 37.9°F3.3°C 48% 0.2 mph ENE0.3 kmh ENE -- 29.98 in1015.2 mb 0.00 in0.0 mm 0.00 in0.0 mm 0.00 in0.0 mm
07:57 AM 58.1°F14.5°C 38.5°F3.6°C 48% 0.2 mph NNE0.3 kmh NNE 0.9 mph1.4 kmh 29.98 in1015.2 mb 0.00 in0.0 mm 0.00 in0.0 mm 0.00 in0.0 mm
07:59 AM 58.6°F14.8°C 38.5°F3.6°C 47% 0.2 mph W0.3 kmh W 1.1 mph1.8 kmh 29.98 in1015.2 mb 0.00 in0.0 mm 0.00 in0.0 mm 0.00 in0.0 mm
08:01 AM 58.8°F14.9°C 38.7°F3.7°C 47% 0.4 mph WNW0.6 kmh WNW 1.6 mph2.6 kmh 29.98 in1015.2 mb 0.00 in0.0 mm 0.00 in0.0 mm 0.00 in0.0 mm
08:03 AM 58.8°F14.9°C 38.7°F3.7°C 47% 0.2 mph ENE0.3 kmh ENE -- 29.98 in1015.2 mb 0.00 in0.0 mm 0.00 in0.0 mm 0.00 in0.0 mm
08:05 AM 59.4°F15.2°C 39.2°F4.0°C 47% 0.2 mph E0.3 kmh E -- 29.98 in1015.2 mb 0.00 in0.0 mm 0.00 in0.0 mm 0.00 in0.0 mm
08:08 AM 59.5°F15.3°C 38.7°F3.7°C 46% 0.4 mph E0.6 kmh E 1.3 mph2.1 kmh 29.98 in1015.2 mb 0.00 in0.0 mm 0.00 in0.0 mm 0.00 in0.0 mm
08:10 AM 59.2°F15.1°C 38.5°F3.6°C 46% 1.6 mph E2.6 kmh E 3.8 mph6.1 kmh 29.98 in1015.2 mb 0.00 in0.0 mm 0.00 in0.0 mm 0.00 in0.0 mm
08:12 AM 58.8°F14.9°C 38.1°F3.4°C 46% 1.8 mph ESE2.9 kmh ESE 4.0 mph6.4 kmh 29.98 in1015.2 mb 0.00 in0.0 mm 0.00 in0.0 mm 0.00 in0.0 mm
08:14 AM 58.8°F14.9°C 38.1°F3.4°C 46% 0.9 mph E1.4 kmh E 0.9 mph1.4 kmh 29.98 in1015.2 mb 0.00 in0.0 mm 0.00 in0.0 mm 0.00 in0.0 mm
08:17 AM 59.2°F15.1°C 38.5°F3.6°C 46% 0.4 mph NE0.6 kmh NE -- 29.98 in1015.2 mb 0.00 in0.0 mm 0.00 in0.0 mm 0.00 in0.0 mm
08:19 AM 59.7°F15.4°C 38.8°F3.8°C 46% 0.2 mph NE0.3 kmh NE -- 29.99 in1015.6 mb 0.00 in0.0 mm 0.00 in0.0 mm 0.00 in0.0 mm
08:21 AM 60.4°F15.8°C 39.6°F4.2°C 46% 0.2 mph ESE0.3 kmh ESE 0.9 mph1.4 kmh 29.98 in1015.2 mb 0.00 in0.0 mm 0.00 in0.0 mm 0.00 in0.0 mm
08:23 AM 61.0°F16.1°C 39.6°F4.2°C 45% 0.7 mph E1.1 kmh E 1.6 mph2.6 kmh 29.98 in1015.2 mb 0.00 in0.0 mm 0.00 in0.0 mm 0.00 in0.0 mm
08:26 AM 61.2°F16.2°C 39.7°F4.3°C 45% 0.7 mph ENE1.1 kmh ENE 1.6 mph2.6 kmh 29.98 in1015.2 mb 0.00 in0.0 mm 0.00 in0.0 mm 0.00 in0.0 mm
08:28 AM 61.3°F16.3°C 39.2°F4.0°C 44% 1.3 mph SE2.1 kmh SE 2.9 mph4.7 kmh 29.98 in1015.2 mb 0.00 in0.0 mm 0.00 in0.0 mm 0.00 in0.0 mm
08:30 AM 61.3°F16.3°C 39.2°F4.0°C 44% 2.0 mph ESE3.2 kmh ESE 4.5 mph7.2 kmh 29.98 in1015.2 mb 0.00 in0.0 mm 0.00 in0.0 mm 0.00 in0.0 mm
08:32 AM 61.3°F16.3°C 38.7°F3.7°C 43% 2.0 mph ESE3.2 kmh ESE 2.7 mph4.3 kmh 29.98 in1015.2 mb 0.00 in0.0 mm 0.00 in0.0 mm 0.00 in0.0 mm
08:35 AM 61.3°F16.3°C 39.2°F4.0°C 44% 1.1 mph NNW1.8 kmh NNW 1.8 mph2.9 kmh 29.98 in1015.2 mb 0.00 in0.0 mm 0.00 in0.0 mm 0.00 in0.0 mm
08:37 AM 61.5°F16.4°C 39.4°F4.1°C 44% 0.7 mph NNW1.1 kmh NNW -- 29.98 in1015.2 mb 0.00 in0.0 mm 0.00 in0.0 mm 0.00 in0.0 mm
08:39 AM 61.7°F16.5°C 40.1°F4.5°C 45% 0.4 mph NNW0.6 kmh NNW -- 29.98 in1015.2 mb 0.00 in0.0 mm 0.00 in0.0 mm 0.00 in0.0 mm
08:41 AM 61.7°F16.5°C 40.1°F4.5°C 45% 0.2 mph NNW0.3 kmh NNW -- 29.98 in1015.2 mb 0.00 in0.0 mm 0.00 in0.0 mm 0.00 in0.0 mm
08:43 AM 61.5°F16.4°C 39.9°F4.4°C 45% 0.2 mph NNE0.3 kmh NNE -- 29.99 in1015.6 mb 0.00 in0.0 mm 0.00 in0.0 mm 0.00 in0.0 mm
08:46 AM 61.5°F16.4°C 39.9°F4.4°C 45% 0.2 mph NE0.3 kmh NE -- 29.98 in1015.2 mb 0.00 in0.0 mm 0.00 in0.0 mm 0.00 in0.0 mm
08:48 AM 61.5°F16.4°C 39.9°F4.4°C 45% 0.2 mph NE0.3 kmh NE -- 29.98 in1015.2 mb 0.00 in0.0 mm 0.00 in0.0 mm 0.00 in0.0 mm
08:50 AM 61.5°F16.4°C 39.9°F4.4°C 45% 0.2 mph NE0.3 kmh NE -- 29.98 in1015.2 mb 0.00 in0.0 mm 0.00 in0.0 mm 0.00 in0.0 mm
08:52 AM 61.5°F16.4°C 39.9°F4.4°C 45% 0.2 mph 0.3 kmh 0.7 mph1.1 kmh 29.98 in1015.2 mb 0.00 in0.0 mm 0.00 in0.0 mm 0.00 in0.0 mm
08:54 AM 61.3°F16.3°C 39.7°F4.3°C 45% 0.2 mph W0.3 kmh W 0.9 mph1.4 kmh 29.98 in1015.2 mb 0.00 in0.0 mm 0.00 in0.0 mm 0.00 in0.0 mm
08:57 AM 61.3°F16.3°C 39.7°F4.3°C 45% 0.2 mph W0.3 kmh W -- 29.98 in1015.2 mb 0.00 in0.0 mm 0.00 in0.0 mm 0.00 in0.0 mm
08:59 AM 61.5°F16.4°C 39.9°F4.4°C 45% 0.2 mph W0.3 kmh W -- 29.98 in1015.2 mb 0.00 in0.0 mm 0.00 in0.0 mm 0.00 in0.0 mm
09:01 AM 61.5°F16.4°C 40.5°F4.7°C 46% 0.2 mph WNW0.3 kmh WNW -- 29.98 in1015.2 mb 0.00 in0.0 mm 0.00 in0.0 mm 0.00 in0.0 mm
09:04 AM 61.9°F16.6°C 40.8°F4.9°C 46% 0.2 mph NW0.3 kmh NW -- 29.98 in1015.2 mb 0.00 in0.0 mm 0.00 in0.0 mm 0.00 in0.0 mm
09:06 AM 62.2°F16.8°C 41.2°F5.1°C 46% 0.2 mph NE0.3 kmh NE -- 29.98 in1015.2 mb 0.00 in0.0 mm 0.00 in0.0 mm 0.00 in0.0 mm
09:08 AM 62.6°F17.0°C 41.5°F5.3°C 46% 0.2 mph NNE0.3 kmh NNE -- 29.98 in1015.2 mb 0.00 in0.0 mm 0.00 in0.0 mm 0.00 in0.0 mm
09:10 AM 63.3°F17.4°C 41.5°F5.3°C 45% 0.2 mph ENE0.3 kmh ENE 0.9 mph1.4 kmh 29.98 in1015.2 mb 0.00 in0.0 mm 0.00 in0.0 mm 0.00 in0.0 mm
09:12 AM 63.7°F17.6°C 40.8°F4.9°C 43% 0.4 mph NE0.6 kmh NE 0.9 mph1.4 kmh 29.98 in1015.2 mb 0.00 in0.0 mm 0.00 in0.0 mm 0.00 in0.0 mm
09:15 AM 64.0°F17.8°C 40.5°F4.7°C 42% 0.4 mph NNE0.6 kmh NNE 1.1 mph1.8 kmh 29.98 in1015.2 mb 0.00 in0.0 mm 0.00 in0.0 mm 0.00 in0.0 mm
09:17 AM 64.2°F17.9°C 40.6°F4.8°C 42% 0.4 mph 0.6 kmh 1.3 mph2.1 kmh 29.98 in1015.2 mb 0.00 in0.0 mm 0.00 in0.0 mm 0.00 in0.0 mm
09:19 AM 63.7°F17.6°C 40.1°F4.5°C 42% 1.1 mph NNW1.8 kmh NNW 3.1 mph5.0 kmh 29.98 in1015.2 mb 0.00 in0.0 mm 0.00 in0.0 mm 0.00 in0.0 mm
09:21 AM 62.8°F17.1°C 39.9°F4.4°C 43% 0.7 mph NW1.1 kmh NW 1.6 mph2.6 kmh 29.98 in1015.2 mb 0.00 in0.0 mm 0.00 in0.0 mm 0.00 in0.0 mm
09:24 AM 62.4°F16.9°C 40.8°F4.9°C 45% 0.7 mph NW1.1 kmh NW 1.1 mph1.8 kmh 29.97 in1014.9 mb 0.00 in0.0 mm 0.00 in0.0 mm 0.00 in0.0 mm
09:26 AM 62.2°F16.8°C 40.6°F4.8°C 45% 0.4 mph NW0.6 kmh NW -- 29.98 in1015.2 mb 0.00 in0.0 mm 0.00 in0.0 mm 0.00 in0.0 mm
09:28 AM 61.7°F16.5°C 40.6°F4.8°C 46% 0.9 mph NNW1.4 kmh NNW 2.2 mph3.5 kmh 29.98 in1015.2 mb 0.00 in0.0 mm 0.00 in0.0 mm 0.00 in0.0 mm
09:30 AM 61.5°F16.4°C 40.5°F4.7°C 46% 0.7 mph NNW1.1 kmh NNW 1.3 mph2.1 kmh 29.98 in1015.2 mb 0.00 in0.0 mm 0.00 in0.0 mm 0.00 in0.0 mm
09:33 AM 61.5°F16.4°C 41.2°F5.1°C 47% 0.4 mph ENE0.6 kmh ENE 0.9 mph1.4 kmh 29.98 in1015.2 mb 0.00 in0.0 mm 0.00 in0.0 mm 0.00 in0.0 mm
09:35 AM 61.9°F16.6°C 40.8°F4.9°C 46% 0.7 mph NNE1.1 kmh NNE 2.5 mph4.0 kmh 29.98 in1015.2 mb 0.00 in0.0 mm 0.00 in0.0 mm 0.00 in0.0 mm
09:37 AM 62.1°F16.7°C 41.0°F5.0°C 46% 0.9 mph NE1.4 kmh NE 2.5 mph4.0 kmh 29.97 in1014.9 mb 0.00 in0.0 mm 0.00 in0.0 mm 0.00 in0.0 mm
09:39 AM 62.4°F16.9°C 40.8°F4.9°C 45% 1.1 mph ESE1.8 kmh ESE 2.9 mph4.7 kmh 29.97 in1014.9 mb 0.00 in0.0 mm 0.00 in0.0 mm 0.00 in0.0 mm
09:42 AM 62.8°F17.1°C 40.5°F4.7°C 44% 0.9 mph NNW1.4 kmh NNW 2.5 mph4.0 kmh 29.97 in1014.9 mb 0.00 in0.0 mm 0.00 in0.0 mm 0.00 in0.0 mm
09:44 AM 62.8°F17.1°C 40.5°F4.7°C 44% 1.3 mph 2.1 kmh 3.1 mph5.0 kmh 29.97 in1014.9 mb 0.00 in0.0 mm 0.00 in0.0 mm 0.00 in0.0 mm
09:46 AM 62.6°F17.0°C 39.7°F4.3°C 43% 0.7 mph SW1.1 kmh SW 1.6 mph2.6 kmh 29.97 in1014.9 mb 0.00 in0.0 mm 0.00 in0.0 mm 0.00 in0.0 mm
09:48 AM 62.8°F17.1°C 39.9°F4.4°C 43% 1.1 mph WNW1.8 kmh WNW 2.0 mph3.2 kmh 29.97 in1014.9 mb 0.00 in0.0 mm 0.00 in0.0 mm 0.00 in0.0 mm
09:53 AM 63.0°F17.2°C 40.1°F4.5°C 43% 0.7 mph W1.1 kmh W 1.3 mph2.1 kmh 29.97 in1014.9 mb 0.00 in0.0 mm 0.00 in0.0 mm 0.00 in0.0 mm
09:55 AM 62.6°F17.0°C 39.7°F4.3°C 43% 1.3 mph WSW2.1 kmh WSW 3.4 mph5.5 kmh 29.97 in1014.9 mb 0.00 in0.0 mm 0.00 in0.0 mm 0.00 in0.0 mm
09:57 AM 62.4°F16.9°C 40.3°F4.6°C 44% 1.1 mph NNE1.8 kmh NNE 3.1 mph5.0 kmh 29.97 in1014.9 mb 0.00 in0.0 mm 0.00 in0.0 mm 0.00 in0.0 mm
10:00 AM 62.8°F17.1°C 41.2°F5.1°C 45% 0.7 mph NNE1.1 kmh NNE -- 29.97 in1014.9 mb 0.00 in0.0 mm 0.00 in0.0 mm 0.00 in0.0 mm
10:02 AM 63.0°F17.2°C 41.4°F5.2°C 45% 0.9 mph 1.4 kmh 1.6 mph2.6 kmh 29.96 in1014.6 mb 0.00 in0.0 mm 0.00 in0.0 mm 0.00 in0.0 mm
10:04 AM 63.0°F17.2°C 41.4°F5.2°C 45% 1.1 mph NNW1.8 kmh NNW 2.0 mph3.2 kmh 29.96 in1014.6 mb 0.00 in0.0 mm 0.00 in0.0 mm 0.00 in0.0 mm
10:06 AM 63.1°F17.3°C 41.5°F5.3°C 45% 0.9 mph NE1.4 kmh NE 1.1 mph1.8 kmh 29.96 in1014.6 mb 0.00 in0.0 mm 0.00 in0.0 mm 0.00 in0.0 mm
10:09 AM 63.5°F17.5°C 42.3°F5.7°C 46% 0.7 mph NNE1.1 kmh NNE 1.8 mph2.9 kmh 29.96 in1014.6 mb 0.00 in0.0 mm 0.00 in0.0 mm 0.00 in0.0 mm
10:11 AM 64.2°F17.9°C 43.0°F6.1°C 46% 0.7 mph 1.1 kmh 2.2 mph3.5 kmh 29.96 in1014.6 mb 0.00 in0.0 mm 0.00 in0.0 mm 0.00 in0.0 mm
10:13 AM 64.2°F17.9°C 43.0°F6.1°C 46% 0.9 mph NNW1.4 kmh NNW 1.8 mph2.9 kmh 29.96 in1014.6 mb 0.00 in0.0 mm 0.00 in0.0 mm 0.00 in0.0 mm
10:15 AM 64.4°F18.0°C 42.6°F5.9°C 45% 1.3 mph WNW2.1 kmh WNW 2.2 mph3.5 kmh 29.96 in1014.6 mb 0.00 in0.0 mm 0.00 in0.0 mm 0.00 in0.0 mm
10:17 AM 64.2°F17.9°C 43.0°F6.1°C 46% 1.6 mph NNW2.6 kmh NNW 3.4 mph5.5 kmh 29.96 in1014.6 mb 0.00 in0.0 mm 0.00 in0.0 mm 0.00 in0.0 mm
10:19 AM 64.2°F17.9°C 43.0°F6.1°C 46% 1.1 mph NNW1.8 kmh NNW 2.7 mph4.3 kmh 29.96 in1014.6 mb 0.00 in0.0 mm 0.00 in0.0 mm 0.00 in0.0 mm
10:21 AM 64.2°F17.9°C 43.0°F6.1°C 46% 0.7 mph W1.1 kmh W 0.9 mph1.4 kmh 29.96 in1014.6 mb 0.00 in0.0 mm 0.00 in0.0 mm 0.00 in0.0 mm
10:23 AM 64.6°F18.1°C 43.9°F6.6°C 47% 1.1 mph WNW1.8 kmh WNW 2.7 mph4.3 kmh 29.96 in1014.6 mb 0.00 in0.0 mm 0.00 in0.0 mm 0.00 in0.0 mm
10:26 AM 64.8°F18.2°C 44.1°F6.7°C 47% 1.1 mph NNW1.8 kmh NNW 2.0 mph3.2 kmh 29.96 in1014.6 mb 0.00 in0.0 mm 0.00 in0.0 mm 0.00 in0.0 mm
10:28 AM 64.8°F18.2°C 44.1°F6.7°C 47% 1.3 mph NNW2.1 kmh NNW 2.9 mph4.7 kmh 29.96 in1014.6 mb 0.00 in0.0 mm 0.00 in0.0 mm 0.00 in0.0 mm
10:30 AM 64.9°F18.3°C 44.2°F6.8°C 47% 1.3 mph WNW2.1 kmh WNW 2.0 mph3.2 kmh 29.96 in1014.6 mb 0.00 in0.0 mm 0.00 in0.0 mm 0.00 in0.0 mm
10:32 AM 64.8°F18.2°C 44.1°F6.7°C 47% 1.1 mph NE1.8 kmh NE 1.6 mph2.6 kmh 29.96 in1014.6 mb 0.00 in0.0 mm 0.00 in0.0 mm 0.00 in0.0 mm
10:34 AM 64.8°F18.2°C 44.1°F6.7°C 47% 0.9 mph NNW1.4 kmh NNW 1.8 mph2.9 kmh 29.95 in1014.2 mb 0.00 in0.0 mm 0.00 in0.0 mm 0.00 in0.0 mm
10:36 AM 64.9°F18.3°C 44.2°F6.8°C 47% 0.7 mph WNW1.1 kmh WNW 2.2 mph3.5 kmh 29.95 in1014.2 mb 0.00 in0.0 mm 0.00 in0.0 mm 0.00 in0.0 mm
10:38 AM 65.1°F18.4°C 44.4°F6.9°C 47% 1.6 mph 2.6 kmh 5.1 mph8.2 kmh 29.95 in1014.2 mb 0.00 in0.0 mm 0.00 in0.0 mm 0.00 in0.0 mm
10:41 AM 64.8°F18.2°C 44.6°F7.0°C 48% 1.6 mph 2.6 kmh 3.6 mph5.8 kmh 29.95 in1014.2 mb 0.00 in0.0 mm 0.00 in0.0 mm 0.00 in0.0 mm
10:43 AM 64.8°F18.2°C 44.6°F7.0°C 48% 1.1 mph NNW1.8 kmh NNW 1.3 mph2.1 kmh 29.95 in1014.2 mb 0.00 in0.0 mm 0.00 in0.0 mm 0.00 in0.0 mm
10:45 AM 65.1°F18.4°C 45.0°F7.2°C 48% 0.9 mph SSW1.4 kmh SSW 2.5 mph4.0 kmh 29.96 in1014.6 mb 0.00 in0.0 mm 0.00 in0.0 mm 0.00 in0.0 mm
10:47 AM 65.8°F18.8°C 45.7°F7.6°C 48% 0.7 mph ENE1.1 kmh ENE 1.6 mph2.6 kmh 29.96 in1014.6 mb 0.00 in0.0 mm 0.00 in0.0 mm 0.00 in0.0 mm
10:49 AM 66.0°F18.9°C 45.7°F7.6°C 48% 0.7 mph NW1.1 kmh NW 2.2 mph3.5 kmh 29.95 in1014.2 mb 0.00 in0.0 mm 0.00 in0.0 mm 0.00 in0.0 mm
10:51 AM 66.0°F18.9°C 45.7°F7.6°C 48% 1.3 mph 2.1 kmh 3.1 mph5.0 kmh 29.96 in1014.6 mb 0.00 in0.0 mm 0.00 in0.0 mm 0.00 in0.0 mm
10:53 AM 65.8°F18.8°C 45.7°F7.6°C 48% 1.8 mph NNE2.9 kmh NNE 3.8 mph6.1 kmh 29.96 in1014.6 mb 0.00 in0.0 mm 0.00 in0.0 mm 0.00 in0.0 mm
10:55 AM 65.7°F18.7°C 45.5°F7.5°C 48% 2.2 mph WSW3.5 kmh WSW 4.0 mph6.4 kmh 29.96 in1014.6 mb 0.00 in0.0 mm 0.00 in0.0 mm 0.00 in0.0 mm
10:58 AM 65.3°F18.5°C 45.1°F7.3°C 48% 2.0 mph NW3.2 kmh NW 3.8 mph6.1 kmh 29.96 in1014.6 mb 0.00 in0.0 mm 0.00 in0.0 mm 0.00 in0.0 mm
11:00 AM 65.1°F18.4°C 45.0°F7.2°C 48% 1.1 mph W1.8 kmh W 1.8 mph2.9 kmh 29.96 in1014.6 mb 0.00 in0.0 mm 0.00 in0.0 mm 0.00 in0.0 mm
11:02 AM 65.1°F18.4°C 45.0°F7.2°C 48% 2.0 mph NNE3.2 kmh NNE 4.5 mph7.2 kmh 29.96 in1014.6 mb 0.00 in0.0 mm 0.00 in0.0 mm 0.00 in0.0 mm
11:04 AM 65.1°F18.4°C 45.0°F7.2°C 48% 1.6 mph NNE2.6 kmh NNE 2.5 mph4.0 kmh 29.96 in1014.6 mb 0.00 in0.0 mm 0.00 in0.0 mm 0.00 in0.0 mm
11:06 AM 65.1°F18.4°C 45.0°F7.2°C 48% 1.6 mph 2.6 kmh 3.1 mph5.0 kmh 29.95 in1014.2 mb 0.00 in0.0 mm 0.00 in0.0 mm 0.00 in0.0 mm
11:08 AM 65.1°F18.4°C 44.4°F6.9°C 47% 1.1 mph SW1.8 kmh SW 1.6 mph2.6 kmh 29.95 in1014.2 mb 0.00 in0.0 mm 0.00 in0.0 mm 0.00 in0.0 mm
11:11 AM 65.5°F18.6°C 44.8°F7.1°C 47% 0.9 mph NNW1.4 kmh NNW 1.6 mph2.6 kmh 29.95 in1014.2 mb 0.00 in0.0 mm 0.00 in0.0 mm 0.00 in0.0 mm
11:13 AM 65.7°F18.7°C 44.2°F6.8°C 46% 1.1 mph WNW1.8 kmh WNW 2.5 mph4.0 kmh 29.95 in1014.2 mb 0.00 in0.0 mm 0.00 in0.0 mm 0.00 in0.0 mm
11:15 AM 65.8°F18.8°C 44.4°F6.9°C 46% 1.6 mph WNW2.6 kmh WNW 3.6 mph5.8 kmh 29.95 in1014.2 mb 0.00 in0.0 mm 0.00 in0.0 mm 0.00 in0.0 mm
11:17 AM 65.8°F18.8°C 44.4°F6.9°C 46% 1.6 mph WSW2.6 kmh WSW 2.5 mph4.0 kmh 29.96 in1014.6 mb 0.00 in0.0 mm 0.00 in0.0 mm 0.00 in0.0 mm
11:19 AM 65.8°F18.8°C 43.3°F6.3°C 44% 1.6 mph SW2.6 kmh SW 4.7 mph7.6 kmh 29.95 in1014.2 mb 0.00 in0.0 mm 0.00 in0.0 mm 0.00 in0.0 mm
11:22 AM 66.0°F18.9°C 44.1°F6.7°C 45% 1.6 mph WNW2.6 kmh WNW 2.5 mph4.0 kmh 29.95 in1014.2 mb 0.00 in0.0 mm 0.00 in0.0 mm 0.00 in0.0 mm
11:24 AM 65.8°F18.8°C 43.9°F6.6°C 45% 0.9 mph 1.4 kmh 1.6 mph2.6 kmh 29.95 in1014.2 mb 0.00 in0.0 mm 0.00 in0.0 mm 0.00 in0.0 mm
11:26 AM 66.0°F18.9°C 44.6°F7.0°C 46% 1.6 mph NNW2.6 kmh NNW 3.4 mph5.5 kmh 29.96 in1014.6 mb 0.00 in0.0 mm 0.00 in0.0 mm 0.00 in0.0 mm
11:28 AM 65.8°F18.8°C 44.4°F6.9°C 46% 1.6 mph WSW2.6 kmh WSW 3.1 mph5.0 kmh 29.95 in1014.2 mb 0.00 in0.0 mm 0.00 in0.0 mm 0.00 in0.0 mm
11:31 AM 65.8°F18.8°C 44.4°F6.9°C 46% 1.6 mph 2.6 kmh 5.6 mph9.0 kmh 29.96 in1014.6 mb 0.00 in0.0 mm 0.00 in0.0 mm 0.00 in0.0 mm
11:33 AM 65.8°F18.8°C 44.4°F6.9°C 46% 1.8 mph NNE2.9 kmh NNE 5.4 mph8.7 kmh 29.96 in1014.6 mb 0.00 in0.0 mm 0.00 in0.0 mm 0.00 in0.0 mm
11:35 AM 65.8°F18.8°C 44.4°F6.9°C 46% 1.6 mph WSW2.6 kmh WSW 2.7 mph4.3 kmh 29.96 in1014.6 mb 0.00 in0.0 mm 0.00 in0.0 mm 0.00 in0.0 mm
11:38 AM 65.8°F18.8°C 45.0°F7.2°C 47% 1.3 mph NNW2.1 kmh NNW 4.3 mph6.9 kmh 29.96 in1014.6 mb 0.00 in0.0 mm 0.00 in0.0 mm 0.00 in0.0 mm
11:40 AM 65.7°F18.7°C 45.0°F7.2°C 47% 1.8 mph WNW2.9 kmh WNW 3.6 mph5.8 kmh 29.96 in1014.6 mb 0.00 in0.0 mm 0.00 in0.0 mm 0.00 in0.0 mm
11:42 AM 65.8°F18.8°C 45.0°F7.2°C 47% 1.1 mph SW1.8 kmh SW 1.3 mph2.1 kmh 29.96 in1014.6 mb 0.00 in0.0 mm 0.00 in0.0 mm 0.00 in0.0 mm
11:44 AM 66.0°F18.9°C 43.5°F6.4°C 44% 1.6 mph WSW2.6 kmh WSW 3.6 mph5.8 kmh 29.96 in1014.6 mb 0.00 in0.0 mm 0.00 in0.0 mm 0.00 in0.0 mm
11:47 AM 66.0°F18.9°C 43.5°F6.4°C 44% 1.3 mph SSW2.1 kmh SSW 2.7 mph4.3 kmh 29.96 in1014.6 mb 0.00 in0.0 mm 0.00 in0.0 mm 0.00 in0.0 mm
11:49 AM 66.0°F18.9°C 42.8°F6.0°C 43% 1.8 mph NW2.9 kmh NW 3.8 mph6.1 kmh 29.96 in1014.6 mb 0.00 in0.0 mm 0.00 in0.0 mm 0.00 in0.0 mm
11:51 AM 65.8°F18.8°C 42.1°F5.6°C 42% 2.0 mph W3.2 kmh W 6.5 mph10.5 kmh 29.96 in1014.6 mb 0.00 in0.0 mm 0.00 in0.0 mm 0.00 in0.0 mm
11:53 AM 65.8°F18.8°C 41.5°F5.3°C 41% 2.9 mph WNW4.7 kmh WNW 8.9 mph14.3 kmh 29.96 in1014.6 mb 0.00 in0.0 mm 0.00 in0.0 mm 0.00 in0.0 mm
11:55 AM 65.7°F18.7°C 41.4°F5.2°C 41% 2.5 mph WNW4.0 kmh WNW 4.7 mph7.6 kmh 29.96 in1014.6 mb 0.00 in0.0 mm 0.00 in0.0 mm 0.00 in0.0 mm
11:58 AM 65.5°F18.6°C 41.2°F5.1°C 41% 2.0 mph WNW3.2 kmh WNW 2.9 mph4.7 kmh 29.96 in1014.6 mb 0.00 in0.0 mm 0.00 in0.0 mm 0.00 in0.0 mm
12:00 PM 65.5°F18.6°C 41.2°F5.1°C 41% 2.5 mph W4.0 kmh W 4.5 mph7.2 kmh 29.96 in1014.6 mb 0.00 in0.0 mm 0.00 in0.0 mm 0.00 in0.0 mm
12:02 PM 65.8°F18.8°C 41.5°F5.3°C 41% 2.5 mph WNW4.0 kmh WNW 3.8 mph6.1 kmh 29.96 in1014.6 mb 0.00 in0.0 mm 0.00 in0.0 mm 0.00 in0.0 mm
12:04 PM 65.8°F18.8°C 40.8°F4.9°C 40% 3.1 mph 5.0 kmh 8.1 mph13.0 kmh 29.96 in1014.6 mb 0.00 in0.0 mm 0.00 in0.0 mm 0.00 in0.0 mm
12:07 PM 66.0°F18.9°C 40.3°F4.6°C 39% 3.6 mph WSW5.8 kmh WSW 6.0 mph9.7 kmh 29.95 in1014.2 mb 0.00 in0.0 mm 0.00 in0.0 mm 0.00 in0.0 mm
12:09 PM 65.8°F18.8°C 38.8°F3.8°C 37% 5.6 mph WNW9.0 kmh WNW 16.3 mph26.2 kmh 29.95 in1014.2 mb 0.00 in0.0 mm 0.00 in0.0 mm 0.00 in0.0 mm
12:11 PM 65.8°F18.8°C 38.8°F3.8°C 37% 5.6 mph WSW9.0 kmh WSW 7.2 mph11.6 kmh 29.95 in1014.2 mb 0.00 in0.0 mm 0.00 in0.0 mm 0.00 in0.0 mm
12:13 PM 65.5°F18.6°C 38.5°F3.6°C 37% 5.6 mph SSW9.0 kmh SSW 8.9 mph14.3 kmh 29.95 in1014.2 mb 0.00 in0.0 mm 0.00 in0.0 mm 0.00 in0.0 mm
12:15 PM 65.5°F18.6°C 38.5°F3.6°C 37% 4.7 mph WNW7.6 kmh WNW 8.7 mph14.0 kmh 29.95 in1014.2 mb 0.00 in0.0 mm 0.00 in0.0 mm 0.00 in0.0 mm
12:18 PM 65.5°F18.6°C 39.2°F4.0°C 38% 5.4 mph NNW8.7 kmh NNW 10.7 mph17.2 kmh 29.95 in1014.2 mb 0.00 in0.0 mm 0.00 in0.0 mm 0.00 in0.0 mm
12:20 PM 65.1°F18.4°C 40.3°F4.6°C 40% 5.8 mph NW9.3 kmh NW 13.0 mph20.9 kmh 29.95 in1014.2 mb 0.00 in0.0 mm 0.00 in0.0 mm 0.00 in0.0 mm
12:22 PM 64.8°F18.2°C 40.5°F4.7°C 41% 6.3 mph NW10.1 kmh NW 9.6 mph15.4 kmh 29.95 in1014.2 mb 0.00 in0.0 mm 0.00 in0.0 mm 0.00 in0.0 mm
12:24 PM 64.6°F18.1°C 40.3°F4.6°C 41% 4.5 mph W7.2 kmh W 4.3 mph6.9 kmh 29.95 in1014.2 mb 0.00 in0.0 mm 0.00 in0.0 mm 0.00 in0.0 mm
12:27 PM 64.2°F17.9°C 40.6°F4.8°C 42% 3.4 mph W5.5 kmh W 3.8 mph6.1 kmh 29.95 in1014.2 mb 0.00 in0.0 mm 0.00 in0.0 mm 0.00 in0.0 mm
12:29 PM 64.2°F17.9°C 40.6°F4.8°C 42% 3.6 mph WNW5.8 kmh WNW 6.3 mph10.1 kmh 29.95 in1014.2 mb 0.00 in0.0 mm 0.00 in0.0 mm 0.00 in0.0 mm
12:31 PM 64.2°F17.9°C 40.6°F4.8°C 42% 2.9 mph NNW4.7 kmh NNW 4.7 mph7.6 kmh 29.94 in1013.9 mb 0.00 in0.0 mm 0.00 in0.0 mm 0.00 in0.0 mm
12:33 PM 64.4°F18.0°C 41.4°F5.2°C 43% 4.0 mph WNW6.4 kmh WNW 8.5 mph13.7 kmh 29.94 in1013.9 mb 0.00 in0.0 mm 0.00 in0.0 mm 0.00 in0.0 mm
12:35 PM 64.2°F17.9°C 41.2°F5.1°C 43% 3.4 mph WNW5.5 kmh WNW 8.5 mph13.7 kmh 29.94 in1013.9 mb 0.00 in0.0 mm 0.00 in0.0 mm 0.00 in0.0 mm
12:38 PM 64.6°F18.1°C 41.5°F5.3°C 43% 2.9 mph NNW4.7 kmh NNW 6.5 mph10.5 kmh 29.94 in1013.9 mb 0.00 in0.0 mm 0.00 in0.0 mm 0.00 in0.0 mm
12:40 PM 64.6°F18.1°C 42.3°F5.7°C 44% 3.6 mph NNE5.8 kmh NNE 5.1 mph8.2 kmh 29.94 in1013.9 mb 0.00 in0.0 mm 0.00 in0.0 mm 0.00 in0.0 mm
12:42 PM 64.2°F17.9°C 42.4°F5.8°C 45% 4.5 mph NNW7.2 kmh NNW 7.4 mph11.9 kmh 29.94 in1013.9 mb 0.00 in0.0 mm 0.00 in0.0 mm 0.00 in0.0 mm
12:44 PM 64.2°F17.9°C 42.4°F5.8°C 45% 4.7 mph WSW7.6 kmh WSW 5.8 mph9.3 kmh 29.94 in1013.9 mb 0.00 in0.0 mm 0.00 in0.0 mm 0.00 in0.0 mm
12:46 PM 64.2°F17.9°C 42.4°F5.8°C 45% 3.6 mph SW5.8 kmh SW 7.2 mph11.6 kmh 29.94 in1013.9 mb 0.00 in0.0 mm 0.00 in0.0 mm 0.00 in0.0 mm
12:48 PM 64.4°F18.0°C 42.6°F5.9°C 45% 3.4 mph E5.5 kmh E 4.5 mph7.2 kmh 29.94 in1013.9 mb 0.00 in0.0 mm 0.00 in0.0 mm 0.00 in0.0 mm
12:51 PM 64.6°F18.1°C 42.8°F6.0°C 45% 4.0 mph WNW6.4 kmh WNW 9.8 mph15.8 kmh 29.93 in1013.5 mb 0.00 in0.0 mm 0.00 in0.0 mm 0.00 in0.0 mm
12:53 PM 64.4°F18.0°C 42.1°F5.6°C 44% 4.3 mph WNW6.9 kmh WNW 12.8 mph20.6 kmh 29.93 in1013.5 mb 0.00 in0.0 mm 0.00 in0.0 mm 0.00 in0.0 mm
12:55 PM 64.4°F18.0°C 42.1°F5.6°C 44% 2.7 mph WSW4.3 kmh WSW 2.2 mph3.5 kmh 29.93 in1013.5 mb 0.00 in0.0 mm 0.00 in0.0 mm 0.00 in0.0 mm
12:57 PM 64.6°F18.1°C 42.8°F6.0°C 45% 3.1 mph WSW5.0 kmh WSW 7.6 mph12.2 kmh 29.93 in1013.5 mb 0.00 in0.0 mm 0.00 in0.0 mm 0.00 in0.0 mm
12:59 PM 64.8°F18.2°C 42.3°F5.7°C 44% 4.0 mph W6.4 kmh W 6.3 mph10.1 kmh 29.93 in1013.5 mb 0.00 in0.0 mm 0.00 in0.0 mm 0.00 in0.0 mm
01:02 PM 64.6°F18.1°C 42.3°F5.7°C 44% 3.6 mph NNW5.8 kmh NNW 4.7 mph7.6 kmh 29.93 in1013.5 mb 0.00 in0.0 mm 0.00 in0.0 mm 0.00 in0.0 mm
01:04 PM 64.6°F18.1°C 42.8°F6.0°C 45% 3.1 mph W5.0 kmh W 4.7 mph7.6 kmh 29.94 in1013.9 mb 0.00 in0.0 mm 0.00 in0.0 mm 0.00 in0.0 mm
01:06 PM 64.8°F18.2°C 42.3°F5.7°C 44% 4.7 mph W7.6 kmh W 8.5 mph13.7 kmh 29.94 in1013.9 mb 0.00 in0.0 mm 0.00 in0.0 mm 0.00 in0.0 mm
01:08 PM 64.6°F18.1°C 42.3°F5.7°C 44% 4.3 mph W6.9 kmh W 10.5 mph16.9 kmh 29.94 in1013.9 mb 0.00 in0.0 mm 0.00 in0.0 mm 0.00 in0.0 mm
01:10 PM 64.6°F18.1°C 42.8°F6.0°C 45% 3.6 mph NNW5.8 kmh NNW 4.9 mph7.9 kmh 29.94 in1013.9 mb 0.00 in0.0 mm 0.00 in0.0 mm 0.00 in0.0 mm
01:13 PM 64.2°F17.9°C 42.4°F5.8°C 45% 2.9 mph WSW4.7 kmh WSW 4.5 mph7.2 kmh 29.94 in1013.9 mb 0.00 in0.0 mm 0.00 in0.0 mm 0.00 in0.0 mm
01:15 PM 64.4°F18.0°C 43.2°F6.2°C 46% 2.5 mph NNW4.0 kmh NNW 6.3 mph10.1 kmh 29.93 in1013.5 mb 0.00 in0.0 mm 0.00 in0.0 mm 0.00 in0.0 mm
01:17 PM 64.6°F18.1°C 43.3°F6.3°C 46% 2.2 mph 3.5 kmh 3.8 mph6.1 kmh 29.93 in1013.5 mb 0.00 in0.0 mm 0.00 in0.0 mm 0.00 in0.0 mm
01:19 PM 64.6°F18.1°C 43.9°F6.6°C 47% 3.1 mph 5.0 kmh 5.1 mph8.2 kmh 29.93 in1013.5 mb 0.00 in0.0 mm 0.00 in0.0 mm 0.00 in0.0 mm
01:21 PM 64.6°F18.1°C 44.4°F6.9°C 48% 3.1 mph SW5.0 kmh SW 6.7 mph10.8 kmh 29.93 in1013.5 mb 0.00 in0.0 mm 0.00 in0.0 mm 0.00 in0.0 mm
01:23 PM 64.2°F17.9°C 44.6°F7.0°C 49% 3.6 mph NNW5.8 kmh NNW 7.4 mph11.9 kmh 29.93 in1013.5 mb 0.00 in0.0 mm 0.00 in0.0 mm 0.00 in0.0 mm
01:26 PM 64.0°F17.8°C 44.4°F6.9°C 49% 3.6 mph WNW5.8 kmh WNW 5.8 mph9.3 kmh 29.93 in1013.5 mb 0.00 in0.0 mm 0.00 in0.0 mm 0.00 in0.0 mm
01:28 PM 63.7°F17.6°C 44.8°F7.1°C 50% 3.4 mph WNW5.5 kmh WNW 3.8 mph6.1 kmh 29.93 in1013.5 mb 0.00 in0.0 mm 0.00 in0.0 mm 0.00 in0.0 mm
01:30 PM 63.3°F17.4°C 44.4°F6.9°C 50% 2.9 mph NNW4.7 kmh NNW 4.7 mph7.6 kmh 29.93 in1013.5 mb 0.00 in0.0 mm 0.00 in0.0 mm 0.00 in0.0 mm
01:32 PM 63.1°F17.3°C 44.8°F7.1°C 51% 2.5 mph WSW4.0 kmh WSW 3.6 mph5.8 kmh 29.93 in1013.5 mb 0.00 in0.0 mm 0.00 in0.0 mm 0.00 in0.0 mm
01:34 PM 63.0°F17.2°C 44.6°F7.0°C 51% 1.6 mph W2.6 kmh W 4.0 mph6.4 kmh 29.93 in1013.5 mb 0.00 in0.0 mm 0.00 in0.0 mm 0.00 in0.0 mm
01:36 PM 62.8°F17.1°C 45.0°F7.2°C 52% 1.8 mph NNE2.9 kmh NNE 4.5 mph7.2 kmh 29.92 in1013.2 mb 0.00 in0.0 mm 0.00 in0.0 mm 0.00 in0.0 mm
01:39 PM 62.4°F16.9°C 44.6°F7.0°C 52% 1.6 mph W2.6 kmh W 3.4 mph5.5 kmh 29.92 in1013.2 mb 0.00 in0.0 mm 0.00 in0.0 mm 0.00 in0.0 mm
01:41 PM 62.4°F16.9°C 44.6°F7.0°C 52% 1.8 mph W2.9 kmh W 4.0 mph6.4 kmh 29.92 in1013.2 mb 0.00 in0.0 mm 0.00 in0.0 mm 0.00 in0.0 mm
01:43 PM 62.4°F16.9°C 45.1°F7.3°C 53% 1.3 mph W2.1 kmh W 2.0 mph3.2 kmh 29.91 in1012.9 mb 0.00 in0.0 mm 0.00 in0.0 mm 0.00 in0.0 mm
01:45 PM 62.2°F16.8°C 45.0°F7.2°C 53% 1.6 mph NNW2.6 kmh NNW 3.8 mph6.1 kmh 29.92 in1013.2 mb 0.00 in0.0 mm 0.00 in0.0 mm 0.00 in0.0 mm
01:48 PM 62.2°F16.8°C 45.0°F7.2°C 53% 1.1 mph 1.8 kmh 2.0 mph3.2 kmh 29.92 in1013.2 mb 0.00 in0.0 mm 0.00 in0.0 mm 0.00 in0.0 mm
01:50 PM 62.2°F16.8°C 45.0°F7.2°C 53% 1.1 mph NNW1.8 kmh NNW 2.5 mph4.0 kmh 29.92 in1013.2 mb 0.00 in0.0 mm 0.00 in0.0 mm 0.00 in0.0 mm
01:52 PM 62.4°F16.9°C 45.1°F7.3°C 53% 0.9 mph NNW1.4 kmh NNW 1.6 mph2.6 kmh 29.91 in1012.9 mb 0.00 in0.0 mm 0.00 in0.0 mm 0.00 in0.0 mm
01:54 PM 62.4°F16.9°C 44.6°F7.0°C 52% 1.1 mph NW1.8 kmh NW 2.5 mph4.0 kmh 29.91 in1012.9 mb 0.00 in0.0 mm 0.00 in0.0 mm 0.00 in0.0 mm
01:57 PM 62.4°F16.9°C 44.6°F7.0°C 52% 1.3 mph 2.1 kmh 3.6 mph5.8 kmh 29.91 in1012.9 mb 0.00 in0.0 mm 0.00 in0.0 mm 0.00 in0.0 mm
01:59 PM 62.2°F16.8°C 45.0°F7.2°C 53% 1.6 mph WNW2.6 kmh WNW 3.8 mph6.1 kmh 29.91 in1012.9 mb 0.00 in0.0 mm 0.00 in0.0 mm 0.00 in0.0 mm
02:01 PM 62.4°F16.9°C 45.1°F7.3°C 53% 1.3 mph NNW2.1 kmh NNW 2.5 mph4.0 kmh 29.91 in1012.9 mb 0.00 in0.0 mm 0.00 in0.0 mm 0.00 in0.0 mm
02:03 PM 62.2°F16.8°C 45.0°F7.2°C 53% 1.6 mph 2.6 kmh 3.4 mph5.5 kmh 29.91 in1012.9 mb 0.00 in0.0 mm 0.00 in0.0 mm 0.00 in0.0 mm
02:05 PM 62.2°F16.8°C 45.0°F7.2°C 53% 1.1 mph WNW1.8 kmh WNW 3.1 mph5.0 kmh 29.91 in1012.9 mb 0.00 in0.0 mm 0.00 in0.0 mm 0.00 in0.0 mm
02:08 PM 62.4°F16.9°C 45.1°F7.3°C 53% 1.3 mph WNW2.1 kmh WNW 4.5 mph7.2 kmh 29.91 in1012.9 mb 0.00 in0.0 mm 0.00 in0.0 mm 0.00 in0.0 mm
02:10 PM 62.4°F16.9°C 45.5°F7.5°C 54% 2.2 mph NNW3.5 kmh NNW 4.3 mph6.9 kmh 29.91 in1012.9 mb 0.00 in0.0 mm 0.00 in0.0 mm 0.00 in0.0 mm
02:12 PM 62.2°F16.8°C 45.3°F7.4°C 54% 2.0 mph NW3.2 kmh NW 4.5 mph7.2 kmh 29.91 in1012.9 mb 0.00 in0.0 mm 0.00 in0.0 mm 0.00 in0.0 mm
02:14 PM 62.4°F16.9°C 46.0°F7.8°C 55% 1.8 mph 2.9 kmh 2.5 mph4.0 kmh 29.91 in1012.9 mb 0.00 in0.0 mm 0.00 in0.0 mm 0.00 in0.0 mm
02:17 PM 62.4°F16.9°C 46.0°F7.8°C 55% 1.3 mph NNW2.1 kmh NNW 2.7 mph4.3 kmh 29.91 in1012.9 mb 0.00 in0.0 mm 0.00 in0.0 mm 0.00 in0.0 mm
02:19 PM 62.4°F16.9°C 46.6°F8.1°C 56% 1.3 mph NW2.1 kmh NW 2.9 mph4.7 kmh 29.91 in1012.9 mb 0.00 in0.0 mm 0.00 in0.0 mm 0.00 in0.0 mm
02:21 PM 62.2°F16.8°C 46.4°F8.0°C 56% 1.1 mph SE1.8 kmh SE 1.6 mph2.6 kmh 29.90 in1012.5 mb 0.00 in0.0 mm 0.00 in0.0 mm 0.00 in0.0 mm
02:23 PM 62.2°F16.8°C 46.8°F8.2°C 57% 0.7 mph NNW1.1 kmh NNW 1.8 mph2.9 kmh 29.90 in1012.5 mb 0.00 in0.0 mm 0.00 in0.0 mm 0.00 in0.0 mm
02:25 PM 62.2°F16.8°C 46.8°F8.2°C 57% 0.4 mph NE0.6 kmh NE -- 29.90 in1012.5 mb 0.00 in0.0 mm 0.00 in0.0 mm 0.00 in0.0 mm
02:27 PM 62.4°F16.9°C 46.9°F8.3°C 57% 0.7 mph 1.1 kmh 2.5 mph4.0 kmh 29.90 in1012.5 mb 0.00 in0.0 mm 0.00 in0.0 mm 0.00 in0.0 mm
02:29 PM 62.6°F17.0°C 47.1°F8.4°C 57% 1.3 mph E2.1 kmh E 2.9 mph4.7 kmh 29.89 in1012.2 mb 0.00 in0.0 mm 0.00 in0.0 mm 0.00 in0.0 mm
02:32 PM 62.4°F16.9°C 46.6°F8.1°C 56% 1.3 mph SSE2.1 kmh SSE 3.6 mph5.8 kmh 29.90 in1012.5 mb 0.00 in0.0 mm 0.00 in0.0 mm 0.00 in0.0 mm
02:34 PM 62.6°F17.0°C 46.2°F7.9°C 55% 1.1 mph 1.8 kmh 2.2 mph3.5 kmh 29.89 in1012.2 mb 0.00 in0.0 mm 0.00 in0.0 mm 0.00 in0.0 mm
02:36 PM 62.4°F16.9°C 46.0°F7.8°C 55% 0.7 mph NW1.1 kmh NW 0.7 mph1.1 kmh 29.89 in1012.2 mb 0.00 in0.0 mm 0.00 in0.0 mm 0.00 in0.0 mm
02:38 PM 62.6°F17.0°C 46.2°F7.9°C 55% 0.4 mph ESE0.6 kmh ESE -- 29.90 in1012.5 mb 0.00 in0.0 mm 0.00 in0.0 mm 0.00 in0.0 mm
02:41 PM 62.8°F17.1°C 46.4°F8.0°C 55% 0.4 mph ESE0.6 kmh ESE 1.6 mph2.6 kmh 29.90 in1012.5 mb 0.00 in0.0 mm 0.00 in0.0 mm 0.00 in0.0 mm
02:43 PM 63.0°F17.2°C 46.6°F8.1°C 55% 0.2 mph NNE0.3 kmh NNE -- 29.89 in1012.2 mb 0.00 in0.0 mm 0.00 in0.0 mm 0.00 in0.0 mm
02:45 PM 63.1°F17.3°C 46.2°F7.9°C 54% 0.2 mph SSW0.3 kmh SSW -- 29.89 in1012.2 mb 0.00 in0.0 mm 0.00 in0.0 mm 0.00 in0.0 mm
02:47 PM 63.1°F17.3°C 46.8°F8.2°C 55% 0.2 mph WNW0.3 kmh WNW -- 29.89 in1012.2 mb 0.00 in0.0 mm 0.00 in0.0 mm 0.00 in0.0 mm
02:49 PM 63.3°F17.4°C 46.9°F8.3°C 55% 0.4 mph E0.6 kmh E 1.3 mph2.1 kmh 29.90 in1012.5 mb 0.00 in0.0 mm 0.00 in0.0 mm 0.00 in0.0 mm
02:51 PM 63.5°F17.5°C 47.1°F8.4°C 55% 0.2 mph E0.3 kmh E -- 29.89 in1012.2 mb 0.00 in0.0 mm 0.00 in0.0 mm 0.00 in0.0 mm
02:54 PM 63.7°F17.6°C 47.3°F8.5°C 55% 0.2 mph WNW0.3 kmh WNW -- 29.89 in1012.2 mb 0.00 in0.0 mm 0.00 in0.0 mm 0.00 in0.0 mm
02:56 PM 64.0°F17.8°C 47.1°F8.4°C 54% 0.2 mph NW0.3 kmh NW 0.7 mph1.1 kmh 29.89 in1012.2 mb 0.00 in0.0 mm 0.00 in0.0 mm 0.00 in0.0 mm
02:58 PM 64.0°F17.8°C 47.1°F8.4°C 54% 0.9 mph NW1.4 kmh NW 2.0 mph3.2 kmh 29.89 in1012.2 mb 0.00 in0.0 mm 0.00 in0.0 mm 0.00 in0.0 mm
03:00 PM 63.7°F17.6°C 46.8°F8.2°C 54% 1.3 mph WNW2.1 kmh WNW 2.5 mph4.0 kmh 29.89 in1012.2 mb 0.00 in0.0 mm 0.00 in0.0 mm 0.00 in0.0 mm
03:02 PM 63.5°F17.5°C 46.6°F8.1°C 54% 1.8 mph WNW2.9 kmh WNW 4.0 mph6.4 kmh 29.89 in1012.2 mb 0.00 in0.0 mm 0.00 in0.0 mm 0.00 in0.0 mm
03:04 PM 63.3°F17.4°C 46.4°F8.0°C 54% 1.3 mph 2.1 kmh 2.5 mph4.0 kmh 29.89 in1012.2 mb 0.00 in0.0 mm 0.00 in0.0 mm 0.00 in0.0 mm
03:07 PM 63.1°F17.3°C 45.7°F7.6°C 53% 1.6 mph NW2.6 kmh NW 3.6 mph5.8 kmh 29.89 in1012.2 mb 0.00 in0.0 mm 0.00 in0.0 mm 0.00 in0.0 mm
03:09 PM 63.1°F17.3°C 45.7°F7.6°C 53% 2.0 mph 3.2 kmh 6.3 mph10.1 kmh 29.89 in1012.2 mb 0.00 in0.0 mm 0.00 in0.0 mm 0.00 in0.0 mm
03:11 PM 63.0°F17.2°C 44.1°F6.7°C 50% 2.5 mph W4.0 kmh W 6.3 mph10.1 kmh 29.89 in1012.2 mb 0.00 in0.0 mm 0.00 in0.0 mm 0.00 in0.0 mm
03:13 PM 63.0°F17.2°C 44.1°F6.7°C 50% 1.8 mph SE2.9 kmh SE 3.1 mph5.0 kmh 29.88 in1011.9 mb 0.00 in0.0 mm 0.00 in0.0 mm 0.00 in0.0 mm
03:15 PM 63.0°F17.2°C 44.1°F6.7°C 50% 1.3 mph SW2.1 kmh SW 2.9 mph4.7 kmh 29.88 in1011.9 mb 0.00 in0.0 mm 0.00 in0.0 mm 0.00 in0.0 mm
03:17 PM 62.8°F17.1°C 43.9°F6.6°C 50% 1.8 mph SW2.9 kmh SW 5.4 mph8.7 kmh 29.88 in1011.9 mb 0.00 in0.0 mm 0.00 in0.0 mm 0.00 in0.0 mm
03:19 PM 62.8°F17.1°C 43.9°F6.6°C 50% 2.2 mph WNW3.5 kmh WNW 6.0 mph9.7 kmh 29.89 in1012.2 mb 0.00 in0.0 mm 0.00 in0.0 mm 0.00 in0.0 mm
03:22 PM 62.6°F17.0°C 43.7°F6.5°C 50% 1.8 mph WNW2.9 kmh WNW 3.6 mph5.8 kmh 29.89 in1012.2 mb 0.00 in0.0 mm 0.00 in0.0 mm 0.00 in0.0 mm
03:24 PM 62.4°F16.9°C 43.5°F6.4°C 50% 1.8 mph WNW2.9 kmh WNW 3.6 mph5.8 kmh 29.89 in1012.2 mb 0.00 in0.0 mm 0.00 in0.0 mm 0.00 in0.0 mm
03:26 PM 62.4°F16.9°C 43.5°F6.4°C 50% 1.1 mph 1.8 kmh 1.3 mph2.1 kmh 29.88 in1011.9 mb 0.00 in0.0 mm 0.00 in0.0 mm 0.00 in0.0 mm
03:28 PM 62.2°F16.8°C 45.3°F7.4°C 54% 3.4 mph W5.5 kmh W 7.6 mph12.2 kmh 29.88 in1011.9 mb 0.00 in0.0 mm 0.00 in0.0 mm 0.00 in0.0 mm
03:31 PM 61.5°F16.4°C 45.1°F7.3°C 55% 2.0 mph WSW3.2 kmh WSW 1.6 mph2.6 kmh 29.88 in1011.9 mb 0.00 in0.0 mm 0.00 in0.0 mm 0.00 in0.0 mm
03:33 PM 61.0°F16.1°C 45.1°F7.3°C 56% 1.3 mph ENE2.1 kmh ENE 2.5 mph4.0 kmh 29.88 in1011.9 mb 0.00 in0.0 mm 0.00 in0.0 mm 0.00 in0.0 mm
03:35 PM 60.6°F15.9°C 45.3°F7.4°C 57% 1.3 mph WNW2.1 kmh WNW 2.9 mph4.7 kmh 29.88 in1011.9 mb 0.00 in0.0 mm 0.00 in0.0 mm 0.00 in0.0 mm
03:37 PM 60.6°F15.9°C 45.7°F7.6°C 58% 1.1 mph SSW1.8 kmh SSW 2.0 mph3.2 kmh 29.87 in1011.5 mb 0.00 in0.0 mm 0.00 in0.0 mm 0.00 in0.0 mm
03:40 PM 60.4°F15.8°C 46.0°F7.8°C 59% 0.9 mph WNW1.4 kmh WNW 1.6 mph2.6 kmh 29.87 in1011.5 mb 0.00 in0.0 mm 0.00 in0.0 mm 0.00 in0.0 mm
03:42 PM 60.3°F15.7°C 46.4°F8.0°C 60% 0.9 mph WNW1.4 kmh WNW 1.3 mph2.1 kmh 29.87 in1011.5 mb 0.00 in0.0 mm 0.00 in0.0 mm 0.00 in0.0 mm
03:44 PM 60.3°F15.7°C 46.4°F8.0°C 60% 1.1 mph WNW1.8 kmh WNW 1.8 mph2.9 kmh 29.87 in1011.5 mb 0.00 in0.0 mm 0.00 in0.0 mm 0.00 in0.0 mm
03:46 PM 60.3°F15.7°C 46.4°F8.0°C 60% 1.1 mph WSW1.8 kmh WSW 2.0 mph3.2 kmh 29.87 in1011.5 mb 0.00 in0.0 mm 0.00 in0.0 mm 0.00 in0.0 mm
03:49 PM 60.4°F15.8°C 46.9°F8.3°C 61% 2.0 mph SW3.2 kmh SW 4.7 mph7.6 kmh 29.88 in1011.9 mb 0.00 in0.0 mm 0.00 in0.0 mm 0.00 in0.0 mm
03:51 PM 60.4°F15.8°C 46.9°F8.3°C 61% 2.0 mph NNW3.2 kmh NNW 6.3 mph10.1 kmh 29.88 in1011.9 mb 0.00 in0.0 mm 0.00 in0.0 mm 0.00 in0.0 mm
03:53 PM 60.4°F15.8°C 46.9°F8.3°C 61% 1.8 mph WSW2.9 kmh WSW 3.1 mph5.0 kmh 29.88 in1011.9 mb 0.00 in0.0 mm 0.00 in0.0 mm 0.00 in0.0 mm
03:55 PM 60.4°F15.8°C 46.4°F8.0°C 60% 2.5 mph WNW4.0 kmh WNW 6.3 mph10.1 kmh 29.88 in1011.9 mb 0.00 in0.0 mm 0.00 in0.0 mm 0.00 in0.0 mm
03:57 PM 60.4°F15.8°C 45.7°F7.6°C 58% 2.7 mph WNW4.3 kmh WNW 5.1 mph8.2 kmh 29.88 in1011.9 mb 0.00 in0.0 mm 0.00 in0.0 mm 0.00 in0.0 mm
03:59 PM 60.6°F15.9°C 45.3°F7.4°C 57% 2.2 mph NW3.5 kmh NW 6.3 mph10.1 kmh 29.88 in1011.9 mb 0.00 in0.0 mm 0.00 in0.0 mm 0.00 in0.0 mm
04:02 PM 60.6°F15.9°C 45.3°F7.4°C 57% 2.5 mph WNW4.0 kmh WNW 6.7 mph10.8 kmh 29.88 in1011.9 mb 0.00 in0.0 mm 0.00 in0.0 mm 0.00 in0.0 mm
04:04 PM 60.6°F15.9°C 44.8°F7.1°C 56% 2.2 mph SE3.5 kmh SE 3.8 mph6.1 kmh 29.87 in1011.5 mb 0.00 in0.0 mm 0.00 in0.0 mm 0.00 in0.0 mm
04:06 PM 60.6°F15.9°C 44.4°F6.9°C 55% 2.7 mph WNW4.3 kmh WNW 4.0 mph6.4 kmh 29.87 in1011.5 mb 0.00 in0.0 mm 0.00 in0.0 mm 0.00 in0.0 mm
04:08 PM 60.6°F15.9°C 43.9°F6.6°C 54% 3.1 mph WNW5.0 kmh WNW 5.6 mph9.0 kmh 29.87 in1011.5 mb 0.00 in0.0 mm 0.00 in0.0 mm 0.00 in0.0 mm
04:10 PM 60.6°F15.9°C 43.9°F6.6°C 54% 3.1 mph NW5.0 kmh NW 5.6 mph9.0 kmh 29.87 in1011.5 mb 0.00 in0.0 mm 0.00 in0.0 mm 0.00 in0.0 mm
04:12 PM 60.6°F15.9°C 43.9°F6.6°C 54% 3.6 mph NE5.8 kmh NE 8.5 mph13.7 kmh 29.87 in1011.5 mb 0.00 in0.0 mm 0.00 in0.0 mm 0.00 in0.0 mm
04:15 PM 60.6°F15.9°C 43.9°F6.6°C 54% 3.6 mph NW5.8 kmh NW 5.6 mph9.0 kmh 29.87 in1011.5 mb 0.00 in0.0 mm 0.00 in0.0 mm 0.00 in0.0 mm
04:17 PM 60.6°F15.9°C 43.9°F6.6°C 54% 2.9 mph 4.7 kmh 3.8 mph6.1 kmh 29.87 in1011.5 mb 0.00 in0.0 mm 0.00 in0.0 mm 0.00 in0.0 mm
04:19 PM 60.6°F15.9°C 43.9°F6.6°C 54% 2.9 mph NNE4.7 kmh NNE 5.4 mph8.7 kmh 29.86 in1011.2 mb 0.00 in0.0 mm 0.00 in0.0 mm 0.00 in0.0 mm
04:22 PM 60.6°F15.9°C 43.9°F6.6°C 54% 2.9 mph NW4.7 kmh NW 6.3 mph10.1 kmh 29.86 in1011.2 mb 0.00 in0.0 mm 0.00 in0.0 mm 0.00 in0.0 mm
04:24 PM 60.6°F15.9°C 43.9°F6.6°C 54% 2.7 mph W4.3 kmh W 4.5 mph7.2 kmh 29.86 in1011.2 mb 0.00 in0.0 mm 0.00 in0.0 mm 0.00 in0.0 mm
04:26 PM 60.6°F15.9°C 43.3°F6.3°C 53% 2.5 mph SE4.0 kmh SE 4.5 mph7.2 kmh 29.86 in1011.2 mb 0.00 in0.0 mm 0.00 in0.0 mm 0.00 in0.0 mm
04:28 PM 60.6°F15.9°C 43.3°F6.3°C 53% 2.2 mph S3.5 kmh S 3.1 mph5.0 kmh 29.86 in1011.2 mb 0.00 in0.0 mm 0.00 in0.0 mm 0.00 in0.0 mm
04:30 PM 60.6°F15.9°C 43.3°F6.3°C 53% 2.5 mph SSW4.0 kmh SSW 6.5 mph10.5 kmh 29.86 in1011.2 mb 0.00 in0.0 mm 0.00 in0.0 mm 0.00 in0.0 mm
04:33 PM 60.6°F15.9°C 43.0°F6.1°C 52% 2.2 mph W3.5 kmh W 3.6 mph5.8 kmh 29.86 in1011.2 mb 0.00 in0.0 mm 0.00 in0.0 mm 0.00 in0.0 mm
04:35 PM 60.6°F15.9°C 43.0°F6.1°C 52% 2.7 mph NW4.3 kmh NW 4.0 mph6.4 kmh 29.86 in1011.2 mb 0.00 in0.0 mm 0.00 in0.0 mm 0.00 in0.0 mm
04:37 PM 60.6°F15.9°C 42.4°F5.8°C 51% 2.7 mph W4.3 kmh W 5.1 mph8.2 kmh 29.86 in1011.2 mb 0.00 in0.0 mm 0.00 in0.0 mm 0.00 in0.0 mm
04:39 PM 61.0°F16.1°C 42.8°F6.0°C 51% 3.6 mph WNW5.8 kmh WNW 6.0 mph9.7 kmh 29.86 in1011.2 mb 0.00 in0.0 mm 0.00 in0.0 mm 0.00 in0.0 mm
04:41 PM 61.0°F16.1°C 42.8°F6.0°C 51% 3.1 mph WNW5.0 kmh WNW 3.4 mph5.5 kmh 29.87 in1011.5 mb 0.00 in0.0 mm 0.00 in0.0 mm 0.00 in0.0 mm
04:44 PM 61.0°F16.1°C 45.1°F7.3°C 56% 3.4 mph 5.5 kmh 8.1 mph13.0 kmh 29.87 in1011.5 mb 0.00 in0.0 mm 0.00 in0.0 mm 0.00 in0.0 mm
04:46 PM 60.6°F15.9°C 46.2°F7.9°C 59% 4.5 mph WNW7.2 kmh WNW 10.5 mph16.9 kmh 29.87 in1011.5 mb 0.00 in0.0 mm 0.00 in0.0 mm 0.00 in0.0 mm
04:48 PM 60.1°F15.6°C 46.9°F8.3°C 62% 4.9 mph NNW7.9 kmh NNW 7.6 mph12.2 kmh 29.87 in1011.5 mb 0.00 in0.0 mm 0.00 in0.0 mm 0.00 in0.0 mm
04:51 PM 59.5°F15.3°C 46.9°F8.3°C 63% 4.5 mph W7.2 kmh W 6.3 mph10.1 kmh 29.87 in1011.5 mb 0.00 in0.0 mm 0.00 in0.0 mm 0.00 in0.0 mm
04:53 PM 59.2°F15.1°C 46.9°F8.3°C 64% 6.0 mph W9.7 kmh W 13.2 mph21.2 kmh 29.87 in1011.5 mb 0.00 in0.0 mm 0.00 in0.0 mm 0.00 in0.0 mm
04:55 PM 58.8°F14.9°C 47.1°F8.4°C 65% 5.6 mph NNW9.0 kmh NNW 8.1 mph13.0 kmh 29.87 in1011.5 mb 0.00 in0.0 mm 0.00 in0.0 mm 0.00 in0.0 mm
04:57 PM 58.6°F14.8°C 47.3°F8.5°C 66% 5.6 mph NNW9.0 kmh NNW 11.4 mph18.3 kmh 29.87 in1011.5 mb 0.00 in0.0 mm 0.00 in0.0 mm 0.00 in0.0 mm
05:00 PM 58.3°F14.6°C 47.3°F8.5°C 67% 6.7 mph WNW10.8 kmh WNW 11.9 mph19.2 kmh 29.87 in1011.5 mb 0.00 in0.0 mm 0.00 in0.0 mm 0.00 in0.0 mm
05:02 PM 58.1°F14.5°C 47.7°F8.7°C 68% 5.8 mph SW9.3 kmh SW 10.5 mph16.9 kmh 29.87 in1011.5 mb 0.00 in0.0 mm 0.00 in0.0 mm 0.00 in0.0 mm
05:04 PM 57.9°F14.4°C 47.8°F8.8°C 69% 5.6 mph SSW9.0 kmh SSW 10.5 mph16.9 kmh 29.88 in1011.9 mb 0.00 in0.0 mm 0.00 in0.0 mm 0.00 in0.0 mm
05:06 PM 57.7°F14.3°C 47.7°F8.7°C 69% 4.3 mph 6.9 kmh 3.8 mph6.1 kmh 29.88 in1011.9 mb 0.00 in0.0 mm 0.00 in0.0 mm 0.00 in0.0 mm
05:08 PM 57.6°F14.2°C 47.8°F8.8°C 70% 4.7 mph W7.6 kmh W 13.9 mph22.4 kmh 29.88 in1011.9 mb 0.00 in0.0 mm 0.00 in0.0 mm 0.00 in0.0 mm
05:10 PM 57.0°F13.9°C 47.3°F8.5°C 70% 5.1 mph WNW8.2 kmh WNW 9.6 mph15.4 kmh 29.88 in1011.9 mb 0.00 in0.0 mm 0.00 in0.0 mm 0.00 in0.0 mm
05:12 PM 56.5°F13.6°C 46.8°F8.2°C 70% 4.3 mph SW6.9 kmh SW 8.1 mph13.0 kmh 29.88 in1011.9 mb 0.00 in0.0 mm 0.00 in0.0 mm 0.00 in0.0 mm
05:14 PM 56.3°F13.5°C 46.6°F8.1°C 70% 3.6 mph S5.8 kmh S 4.7 mph7.6 kmh 29.88 in1011.9 mb 0.00 in0.0 mm 0.00 in0.0 mm 0.00 in0.0 mm
05:17 PM 55.9°F13.3°C 46.2°F7.9°C 70% 2.9 mph W4.7 kmh W 4.5 mph7.2 kmh 29.88 in1011.9 mb 0.00 in0.0 mm 0.00 in0.0 mm 0.00 in0.0 mm
05:19 PM 55.6°F13.1°C 46.4°F8.0°C 71% 2.7 mph WNW4.3 kmh WNW 4.9 mph7.9 kmh 29.88 in1011.9 mb 0.00 in0.0 mm 0.00 in0.0 mm 0.00 in0.0 mm
05:21 PM 55.2°F12.9°C 46.0°F7.8°C 71% 2.9 mph WSW4.7 kmh WSW 7.6 mph12.2 kmh 29.88 in1011.9 mb 0.00 in0.0 mm 0.00 in0.0 mm 0.00 in0.0 mm
05:23 PM 55.2°F12.9°C 46.4°F8.0°C 72% 2.7 mph WSW4.3 kmh WSW 5.4 mph8.7 kmh 29.88 in1011.9 mb 0.00 in0.0 mm 0.00 in0.0 mm 0.00 in0.0 mm
05:26 PM 55.0°F12.8°C 46.2°F7.9°C 72% 3.4 mph WNW5.5 kmh WNW 6.9 mph11.1 kmh 29.89 in1012.2 mb 0.02 in0.5 mm 0.40 in10.2 mm 0.02 in0.5 mm
05:28 PM 55.0°F12.8°C 46.2°F7.9°C 72% 2.9 mph NNW4.7 kmh NNW 6.3 mph10.1 kmh 29.89 in1012.2 mb 0.02 in0.5 mm 0.00 in0.0 mm 0.02 in0.5 mm
05:30 PM 55.2°F12.9°C 46.4°F8.0°C 72% 2.7 mph WSW4.3 kmh WSW 3.8 mph6.1 kmh 29.88 in1011.9 mb 0.02 in0.5 mm 0.00 in0.0 mm 0.02 in0.5 mm
05:32 PM 55.2°F12.9°C 46.8°F8.2°C 73% 1.8 mph W2.9 kmh W 2.2 mph3.5 kmh 29.88 in1011.9 mb 0.02 in0.5 mm 0.00 in0.0 mm 0.02 in0.5 mm
05:34 PM 55.4°F13.0°C 46.9°F8.3°C 73% 2.2 mph WSW3.5 kmh WSW 5.1 mph8.2 kmh 29.88 in1011.9 mb 0.02 in0.5 mm 0.00 in0.0 mm 0.02 in0.5 mm
05:37 PM 55.6°F13.1°C 47.1°F8.4°C 73% 1.6 mph NE2.6 kmh NE 2.5 mph4.0 kmh 29.88 in1011.9 mb 0.02 in0.5 mm 0.00 in0.0 mm 0.02 in0.5 mm
05:39 PM 55.6°F13.1°C 47.1°F8.4°C 73% 1.8 mph WNW2.9 kmh WNW 3.8 mph6.1 kmh 29.88 in1011.9 mb 0.02 in0.5 mm 0.00 in0.0 mm 0.02 in0.5 mm
05:41 PM 55.6°F13.1°C 47.1°F8.4°C 73% 2.5 mph 4.0 kmh 5.8 mph9.3 kmh 29.88 in1011.9 mb 0.02 in0.5 mm 0.00 in0.0 mm 0.02 in0.5 mm
05:43 PM 55.6°F13.1°C 47.5°F8.6°C 74% 2.7 mph NNW4.3 kmh NNW 3.6 mph5.8 kmh 29.88 in1011.9 mb 0.02 in0.5 mm 0.00 in0.0 mm 0.02 in0.5 mm
05:45 PM 55.6°F13.1°C 47.5°F8.6°C 74% 3.1 mph NNE5.0 kmh NNE 6.7 mph10.8 kmh 29.88 in1011.9 mb 0.02 in0.5 mm 0.00 in0.0 mm 0.02 in0.5 mm
05:47 PM 55.4°F13.0°C 47.3°F8.5°C 74% 2.9 mph WNW4.7 kmh WNW 5.6 mph9.0 kmh 29.88 in1011.9 mb 0.02 in0.5 mm 0.00 in0.0 mm 0.02 in0.5 mm
05:50 PM 55.2°F12.9°C 47.1°F8.4°C 74% 3.8 mph SW6.1 kmh SW 7.6 mph12.2 kmh 29.89 in1012.2 mb 0.02 in0.5 mm 0.00 in0.0 mm 0.02 in0.5 mm
05:52 PM 55.2°F12.9°C 47.5°F8.6°C 75% 4.9 mph W7.9 kmh W 11.6 mph18.7 kmh 29.89 in1012.2 mb 0.02 in0.5 mm 0.00 in0.0 mm 0.02 in0.5 mm
05:54 PM 55.2°F12.9°C 47.5°F8.6°C 75% 5.8 mph W9.3 kmh W 14.5 mph23.3 kmh 29.89 in1012.2 mb 0.02 in0.5 mm 0.00 in0.0 mm 0.02 in0.5 mm
05:56 PM 55.2°F12.9°C 47.5°F8.6°C 75% 5.6 mph NW9.0 kmh NW 10.5 mph16.9 kmh 29.89 in1012.2 mb 0.02 in0.5 mm 0.00 in0.0 mm 0.02 in0.5 mm
05:59 PM 55.2°F12.9°C 47.5°F8.6°C 75% 4.0 mph W6.4 kmh W 4.5 mph7.2 kmh 29.89 in1012.2 mb 0.02 in0.5 mm 0.00 in0.0 mm 0.02 in0.5 mm
06:01 PM 55.0°F12.8°C 47.3°F8.5°C 75% 3.4 mph NW5.5 kmh NW 4.7 mph7.6 kmh 29.89 in1012.2 mb 0.02 in0.5 mm 0.00 in0.0 mm 0.02 in0.5 mm
06:03 PM 55.0°F12.8°C 47.7°F8.7°C 76% 4.0 mph W6.4 kmh W 5.8 mph9.3 kmh 29.90 in1012.5 mb 0.02 in0.5 mm 0.00 in0.0 mm 0.02 in0.5 mm
06:05 PM 55.0°F12.8°C 47.7°F8.7°C 76% 4.0 mph WNW6.4 kmh WNW 9.2 mph14.8 kmh 29.90 in1012.5 mb 0.02 in0.5 mm 0.00 in0.0 mm 0.02 in0.5 mm
06:08 PM 54.9°F12.7°C 47.5°F8.6°C 76% 4.3 mph WSW6.9 kmh WSW 9.2 mph14.8 kmh 29.90 in1012.5 mb 0.02 in0.5 mm 0.00 in0.0 mm 0.02 in0.5 mm
06:10 PM 54.9°F12.7°C 47.8°F8.8°C 77% 3.6 mph 5.8 kmh 5.1 mph8.2 kmh 29.90 in1012.5 mb 0.02 in0.5 mm 0.00 in0.0 mm 0.02 in0.5 mm
06:12 PM 54.7°F12.6°C 47.3°F8.5°C 76% 6.7 mph WNW10.8 kmh WNW 18.1 mph29.1 kmh 29.91 in1012.9 mb 0.02 in0.5 mm 0.00 in0.0 mm 0.02 in0.5 mm
06:14 PM 54.1°F12.3°C 46.8°F8.2°C 76% 7.2 mph NW11.6 kmh NW 11.9 mph19.2 kmh 29.91 in1012.9 mb 0.02 in0.5 mm 0.00 in0.0 mm 0.02 in0.5 mm
06:17 PM 53.4°F11.9°C 46.4°F8.0°C 77% 6.3 mph WNW10.1 kmh WNW 11.2 mph18.0 kmh 29.91 in1012.9 mb 0.02 in0.5 mm 0.00 in0.0 mm 0.02 in0.5 mm
06:19 PM 52.9°F11.6°C 45.9°F7.7°C 77% 6.0 mph WSW9.7 kmh WSW 7.4 mph11.9 kmh 29.91 in1012.9 mb 0.02 in0.5 mm 0.00 in0.0 mm 0.02 in0.5 mm
06:21 PM 52.3°F11.3°C 45.7°F7.6°C 78% 6.5 mph NNW10.5 kmh NNW 11.6 mph18.7 kmh 29.91 in1012.9 mb 0.02 in0.5 mm 0.00 in0.0 mm 0.02 in0.5 mm
06:23 PM 51.8°F11.0°C 45.1°F7.3°C 78% 6.0 mph WNW9.7 kmh WNW 6.3 mph10.1 kmh 29.91 in1012.9 mb 0.02 in0.5 mm 0.00 in0.0 mm 0.02 in0.5 mm
06:25 PM 51.6°F10.9°C 45.3°F7.4°C 79% 5.8 mph 9.3 kmh 11.4 mph18.3 kmh 29.91 in1012.9 mb 0.00 in0.0 mm 0.00 in0.0 mm 0.02 in0.5 mm
06:28 PM 51.4°F10.8°C 45.1°F7.3°C 79% 5.6 mph WSW9.0 kmh WSW 9.2 mph14.8 kmh 29.92 in1013.2 mb 0.00 in0.0 mm 0.00 in0.0 mm 0.02 in0.5 mm
06:30 PM 51.1°F10.6°C 45.1°F7.3°C 80% 5.1 mph W8.2 kmh W 7.8 mph12.6 kmh 29.92 in1013.2 mb 0.00 in0.0 mm 0.00 in0.0 mm 0.02 in0.5 mm
06:32 PM 50.7°F10.4°C 44.8°F7.1°C 80% 4.7 mph WNW7.6 kmh WNW 6.9 mph11.1 kmh 29.92 in1013.2 mb 0.00 in0.0 mm 0.00 in0.0 mm 0.02 in0.5 mm
06:34 PM 50.5°F10.3°C 44.6°F7.0°C 80% 3.6 mph WNW5.8 kmh WNW 3.8 mph6.1 kmh 29.92 in1013.2 mb 0.00 in0.0 mm 0.00 in0.0 mm 0.02 in0.5 mm
06:36 PM 50.5°F10.3°C 45.0°F7.2°C 81% 2.9 mph WNW4.7 kmh WNW 7.8 mph12.6 kmh 29.92 in1013.2 mb 0.02 in0.5 mm 0.60 in15.2 mm 0.04 in1.0 mm
06:39 PM 50.4°F10.2°C 44.8°F7.1°C 81% 2.2 mph WNW3.5 kmh WNW 2.7 mph4.3 kmh 29.91 in1012.9 mb 0.02 in0.5 mm 0.00 in0.0 mm 0.04 in1.0 mm
06:41 PM 50.5°F10.3°C 45.0°F7.2°C 81% 1.6 mph W2.6 kmh W 2.2 mph3.5 kmh 29.91 in1012.9 mb 0.02 in0.5 mm 0.00 in0.0 mm 0.04 in1.0 mm
06:43 PM 50.4°F10.2°C 44.8°F7.1°C 81% 2.2 mph WSW3.5 kmh WSW 5.4 mph8.7 kmh 29.91 in1012.9 mb 0.02 in0.5 mm 0.00 in0.0 mm 0.04 in1.0 mm
06:46 PM 50.2°F10.1°C 45.0°F7.2°C 82% 2.0 mph WSW3.2 kmh WSW 5.8 mph9.3 kmh 29.91 in1012.9 mb 0.02 in0.5 mm 0.00 in0.0 mm 0.04 in1.0 mm
06:48 PM 50.2°F10.1°C 45.0°F7.2°C 82% 1.3 mph NNW2.1 kmh NNW 3.6 mph5.8 kmh 29.91 in1012.9 mb 0.02 in0.5 mm 0.00 in0.0 mm 0.04 in1.0 mm
06:50 PM 50.2°F10.1°C 45.0°F7.2°C 82% 1.3 mph SSW2.1 kmh SSW 1.8 mph2.9 kmh 29.91 in1012.9 mb 0.02 in0.5 mm 0.00 in0.0 mm 0.04 in1.0 mm
06:52 PM 50.2°F10.1°C 45.0°F7.2°C 82% 1.6 mph W2.6 kmh W 4.3 mph6.9 kmh 29.91 in1012.9 mb 0.02 in0.5 mm 0.00 in0.0 mm 0.04 in1.0 mm
06:55 PM 50.2°F10.1°C 45.0°F7.2°C 82% 1.1 mph NW1.8 kmh NW 1.3 mph2.1 kmh 29.91 in1012.9 mb 0.02 in0.5 mm 0.00 in0.0 mm 0.04 in1.0 mm
06:57 PM 50.2°F10.1°C 45.0°F7.2°C 82% 0.9 mph W1.4 kmh W 1.1 mph1.8 kmh 29.91 in1012.9 mb 0.02 in0.5 mm 0.00 in0.0 mm 0.04 in1.0 mm
06:59 PM 50.2°F10.1°C 45.0°F7.2°C 82% 0.4 mph WSW0.6 kmh WSW 1.3 mph2.1 kmh 29.91 in1012.9 mb 0.02 in0.5 mm 0.00 in0.0 mm 0.04 in1.0 mm
07:01 PM 50.2°F10.1°C 45.0°F7.2°C 82% 0.4 mph W0.6 kmh W 1.6 mph2.6 kmh 29.91 in1012.9 mb 0.02 in0.5 mm 0.00 in0.0 mm 0.04 in1.0 mm
07:03 PM 50.2°F10.1°C 45.0°F7.2°C 82% 0.4 mph SW0.6 kmh SW 1.1 mph1.8 kmh 29.91 in1012.9 mb 0.02 in0.5 mm 0.00 in0.0 mm 0.04 in1.0 mm
07:06 PM 50.2°F10.1°C 45.0°F7.2°C 82% 0.4 mph W0.6 kmh W 1.3 mph2.1 kmh 29.92 in1013.2 mb 0.02 in0.5 mm 0.00 in0.0 mm 0.04 in1.0 mm
07:08 PM 50.2°F10.1°C 45.0°F7.2°C 82% 0.4 mph W0.6 kmh W 1.3 mph2.1 kmh 29.92 in1013.2 mb 0.02 in0.5 mm 0.00 in0.0 mm 0.04 in1.0 mm
07:10 PM 50.2°F10.1°C 45.0°F7.2°C 82% 0.7 mph NW1.1 kmh NW 2.0 mph3.2 kmh 29.91 in1012.9 mb 0.02 in0.5 mm 0.00 in0.0 mm 0.04 in1.0 mm
07:12 PM 49.8°F9.9°C 44.6°F7.0°C 82% 0.7 mph W1.1 kmh W 2.0 mph3.2 kmh 29.92 in1013.2 mb 0.02 in0.5 mm 0.00 in0.0 mm 0.04 in1.0 mm
07:14 PM 49.8°F9.9°C 44.6°F7.0°C 82% 0.9 mph ENE1.4 kmh ENE 2.0 mph3.2 kmh 29.92 in1013.2 mb 0.02 in0.5 mm 0.00 in0.0 mm 0.04 in1.0 mm
07:17 PM 49.8°F9.9°C 44.6°F7.0°C 82% 1.3 mph WNW2.1 kmh WNW 3.8 mph6.1 kmh 29.92 in1013.2 mb 0.02 in0.5 mm 0.00 in0.0 mm 0.04 in1.0 mm
07:19 PM 49.8°F9.9°C 44.6°F7.0°C 82% 1.1 mph NNW1.8 kmh NNW 2.5 mph4.0 kmh 29.92 in1013.2 mb 0.02 in0.5 mm 0.00 in0.0 mm 0.04 in1.0 mm
07:21 PM 49.8°F9.9°C 44.6°F7.0°C 82% 1.1 mph WNW1.8 kmh WNW 3.6 mph5.8 kmh 29.92 in1013.2 mb 0.02 in0.5 mm 0.00 in0.0 mm 0.04 in1.0 mm
07:23 PM 50.2°F10.1°C 45.0°F7.2°C 82% 1.1 mph NNW1.8 kmh NNW 1.8 mph2.9 kmh 29.92 in1013.2 mb 0.02 in0.5 mm 0.00 in0.0 mm 0.04 in1.0 mm
07:25 PM 50.2°F10.1°C 45.0°F7.2°C 82% 1.3 mph NNW2.1 kmh NNW 5.6 mph9.0 kmh 29.92 in1013.2 mb 0.02 in0.5 mm 0.00 in0.0 mm 0.04 in1.0 mm
07:28 PM 50.2°F10.1°C 45.0°F7.2°C 82% 1.1 mph NNW1.8 kmh NNW 2.9 mph4.7 kmh 29.92 in1013.2 mb 0.02 in0.5 mm 0.00 in0.0 mm 0.04 in1.0 mm
07:30 PM 50.2°F10.1°C 45.0°F7.2°C 82% 1.1 mph NW1.8 kmh NW 2.5 mph4.0 kmh 29.92 in1013.2 mb 0.02 in0.5 mm 0.00 in0.0 mm 0.04 in1.0 mm
07:32 PM 50.4°F10.2°C 45.1°F7.3°C 82% 1.1 mph ENE1.8 kmh ENE 2.2 mph3.5 kmh 29.92 in1013.2 mb 0.02 in0.5 mm 0.00 in0.0 mm 0.04 in1.0 mm
07:34 PM 50.4°F10.2°C 45.1°F7.3°C 82% 0.9 mph NW1.4 kmh NW 1.1 mph1.8 kmh 29.92 in1013.2 mb 0.02 in0.5 mm 0.00 in0.0 mm 0.04 in1.0 mm
07:37 PM 50.4°F10.2°C 45.1°F7.3°C 82% 0.9 mph WNW1.4 kmh WNW 2.0 mph3.2 kmh 29.92 in1013.2 mb 0.00 in0.0 mm 0.00 in0.0 mm 0.04 in1.0 mm
07:39 PM 50.4°F10.2°C 45.1°F7.3°C 82% 0.7 mph WNW1.1 kmh WNW 1.8 mph2.9 kmh 29.92 in1013.2 mb 0.00 in0.0 mm 0.00 in0.0 mm 0.04 in1.0 mm
07:41 PM 50.4°F10.2°C 45.1°F7.3°C 82% 2.0 mph WNW3.2 kmh WNW 5.8 mph9.3 kmh 29.92 in1013.2 mb 0.00 in0.0 mm 0.00 in0.0 mm 0.04 in1.0 mm
07:43 PM 50.2°F10.1°C 45.0°F7.2°C 82% 1.8 mph W2.9 kmh W 4.0 mph6.4 kmh 29.91 in1012.9 mb 0.00 in0.0 mm 0.00 in0.0 mm 0.04 in1.0 mm
07:45 PM 50.4°F10.2°C 44.8°F7.1°C 81% 1.3 mph WNW2.1 kmh WNW 2.2 mph3.5 kmh 29.91 in1012.9 mb 0.00 in0.0 mm 0.00 in0.0 mm 0.04 in1.0 mm
07:48 PM 50.2°F10.1°C 44.6°F7.0°C 81% 2.7 mph WNW4.3 kmh WNW 6.9 mph11.1 kmh 29.91 in1012.9 mb 0.00 in0.0 mm 0.00 in0.0 mm 0.04 in1.0 mm
07:50 PM 50.2°F10.1°C 44.6°F7.0°C 81% 3.4 mph WNW5.5 kmh WNW 6.3 mph10.1 kmh 29.92 in1013.2 mb 0.00 in0.0 mm 0.00 in0.0 mm 0.04 in1.0 mm
07:52 PM 50.2°F10.1°C 44.2°F6.8°C 80% 2.5 mph WNW4.0 kmh WNW 3.1 mph5.0 kmh 29.92 in1013.2 mb 0.00 in0.0 mm 0.00 in0.0 mm 0.04 in1.0 mm
07:54 PM 50.0°F10.0°C 44.1°F6.7°C 80% 2.2 mph WSW3.5 kmh WSW 6.0 mph9.7 kmh 29.92 in1013.2 mb 0.00 in0.0 mm 0.00 in0.0 mm 0.04 in1.0 mm
07:56 PM 50.2°F10.1°C 44.2°F6.8°C 80% 1.6 mph WSW2.6 kmh WSW 2.2 mph3.5 kmh 29.92 in1013.2 mb 0.00 in0.0 mm 0.00 in0.0 mm 0.04 in1.0 mm
07:58 PM 50.0°F10.0°C 44.1°F6.7°C 80% 2.0 mph WNW3.2 kmh WNW 3.8 mph6.1 kmh 29.92 in1013.2 mb 0.00 in0.0 mm 0.00 in0.0 mm 0.04 in1.0 mm
08:01 PM 49.8°F9.9°C 43.9°F6.6°C 80% 1.8 mph WNW2.9 kmh WNW 3.8 mph6.1 kmh 29.91 in1012.9 mb 0.00 in0.0 mm 0.00 in0.0 mm 0.04 in1.0 mm
08:03 PM 49.8°F9.9°C 43.9°F6.6°C 80% 1.8 mph NW2.9 kmh NW 2.9 mph4.7 kmh 29.91 in1012.9 mb 0.00 in0.0 mm 0.00 in0.0 mm 0.04 in1.0 mm
08:05 PM 49.8°F9.9°C 43.9°F6.6°C 80% 0.9 mph W1.4 kmh W 0.9 mph1.4 kmh 29.92 in1013.2 mb 0.00 in0.0 mm 0.00 in0.0 mm 0.04 in1.0 mm
08:07 PM 49.8°F9.9°C 43.9°F6.6°C 80% 0.7 mph SSE1.1 kmh SSE -- 29.91 in1012.9 mb 0.00 in0.0 mm 0.00 in0.0 mm 0.04 in1.0 mm
08:10 PM 49.8°F9.9°C 43.9°F6.6°C 80% 0.9 mph WNW1.4 kmh WNW 1.3 mph2.1 kmh 29.91 in1012.9 mb 0.00 in0.0 mm 0.00 in0.0 mm 0.04 in1.0 mm
08:12 PM 49.6°F9.8°C 43.7°F6.5°C 80% 1.1 mph WNW1.8 kmh WNW 3.8 mph6.1 kmh 29.91 in1012.9 mb 0.00 in0.0 mm 0.00 in0.0 mm 0.04 in1.0 mm
08:14 PM 49.6°F9.8°C 43.7°F6.5°C 80% 0.9 mph W1.4 kmh W 1.8 mph2.9 kmh 29.91 in1012.9 mb 0.00 in0.0 mm 0.00 in0.0 mm 0.04 in1.0 mm
08:16 PM 49.6°F9.8°C 43.7°F6.5°C 80% 0.7 mph WNW1.1 kmh WNW 1.3 mph2.1 kmh 29.92 in1013.2 mb 0.00 in0.0 mm 0.00 in0.0 mm 0.04 in1.0 mm
08:18 PM 49.6°F9.8°C 43.7°F6.5°C 80% 0.4 mph NNW0.6 kmh NNW 0.9 mph1.4 kmh 29.91 in1012.9 mb 0.00 in0.0 mm 0.00 in0.0 mm 0.04 in1.0 mm
08:20 PM 49.6°F9.8°C 43.7°F6.5°C 80% 0.7 mph WSW1.1 kmh WSW 4.3 mph6.9 kmh 29.92 in1013.2 mb 0.00 in0.0 mm 0.00 in0.0 mm 0.04 in1.0 mm
08:22 PM 49.5°F9.7°C 43.5°F6.4°C 80% 0.9 mph W1.4 kmh W 2.5 mph4.0 kmh 29.91 in1012.9 mb 0.00 in0.0 mm 0.00 in0.0 mm 0.04 in1.0 mm
08:25 PM 49.5°F9.7°C 43.5°F6.4°C 80% 0.9 mph NNW1.4 kmh NNW 2.0 mph3.2 kmh 29.92 in1013.2 mb 0.00 in0.0 mm 0.00 in0.0 mm 0.04 in1.0 mm
08:27 PM 49.3°F9.6°C 43.3°F6.3°C 80% 0.7 mph E1.1 kmh E 1.1 mph1.8 kmh 29.92 in1013.2 mb 0.00 in0.0 mm 0.00 in0.0 mm 0.04 in1.0 mm
08:29 PM 49.3°F9.6°C 43.3°F6.3°C 80% 0.4 mph W0.6 kmh W 1.1 mph1.8 kmh 29.91 in1012.9 mb 0.00 in0.0 mm 0.00 in0.0 mm 0.04 in1.0 mm
08:31 PM 49.3°F9.6°C 43.3°F6.3°C 80% 0.4 mph SW0.6 kmh SW 2.0 mph3.2 kmh 29.91 in1012.9 mb 0.00 in0.0 mm 0.00 in0.0 mm 0.04 in1.0 mm
08:33 PM 49.3°F9.6°C 43.3°F6.3°C 80% 0.4 mph WNW0.6 kmh WNW 1.6 mph2.6 kmh 29.91 in1012.9 mb 0.00 in0.0 mm 0.00 in0.0 mm 0.04 in1.0 mm
08:38 PM 49.1°F9.5°C 43.2°F6.2°C 80% 0.4 mph ESE0.6 kmh ESE 1.3 mph2.1 kmh 29.92 in1013.2 mb 0.00 in0.0 mm 0.00 in0.0 mm 0.04 in1.0 mm
08:40 PM 49.1°F9.5°C 43.2°F6.2°C 80% 0.4 mph S0.6 kmh S 1.6 mph2.6 kmh 29.92 in1013.2 mb 0.00 in0.0 mm 0.00 in0.0 mm 0.04 in1.0 mm
08:42 PM 48.9°F9.4°C 43.0°F6.1°C 80% 0.2 mph NW0.3 kmh NW -- 29.92 in1013.2 mb 0.00 in0.0 mm 0.00 in0.0 mm 0.04 in1.0 mm
08:45 PM 48.9°F9.4°C 43.0°F6.1°C 80% 0.2 mph NE0.3 kmh NE -- 29.92 in1013.2 mb 0.00 in0.0 mm 0.00 in0.0 mm 0.04 in1.0 mm
08:47 PM 48.9°F9.4°C 43.0°F6.1°C 80% 0.4 mph SSE0.6 kmh SSE 2.2 mph3.5 kmh 29.92 in1013.2 mb 0.00 in0.0 mm 0.00 in0.0 mm 0.04 in1.0 mm
08:49 PM 48.9°F9.4°C 43.0°F6.1°C 80% 0.2 mph SSE0.3 kmh SSE 0.9 mph1.4 kmh 29.92 in1013.2 mb 0.00 in0.0 mm 0.00 in0.0 mm 0.04 in1.0 mm
08:51 PM 48.9°F9.4°C 43.0°F6.1°C 80% 0.4 mph NW0.6 kmh NW 1.1 mph1.8 kmh 29.92 in1013.2 mb 0.00 in0.0 mm 0.00 in0.0 mm 0.04 in1.0 mm
08:54 PM 48.7°F9.3°C 42.8°F6.0°C 80% 0.4 mph SW0.6 kmh SW 2.2 mph3.5 kmh 29.92 in1013.2 mb 0.00 in0.0 mm 0.00 in0.0 mm 0.04 in1.0 mm
08:56 PM 48.7°F9.3°C 42.8°F6.0°C 80% 0.2 mph ESE0.3 kmh ESE -- 29.92 in1013.2 mb 0.00 in0.0 mm 0.00 in0.0 mm 0.04 in1.0 mm
08:58 PM 48.7°F9.3°C 42.8°F6.0°C 80% 0.4 mph WSW0.6 kmh WSW 1.3 mph2.1 kmh 29.92 in1013.2 mb 0.00 in0.0 mm 0.00 in0.0 mm 0.04 in1.0 mm
09:03 PM 48.7°F9.3°C 42.8°F6.0°C 80% 0.2 mph NE0.3 kmh NE -- 29.92 in1013.2 mb 0.00 in0.0 mm 0.00 in0.0 mm 0.04 in1.0 mm
09:05 PM 48.7°F9.3°C 42.8°F6.0°C 80% 0.2 mph E0.3 kmh E -- 29.92 in1013.2 mb 0.00 in0.0 mm 0.00 in0.0 mm 0.04 in1.0 mm
09:07 PM 48.7°F9.3°C 42.8°F6.0°C 80% 0.2 mph E0.3 kmh E -- 29.92 in1013.2 mb 0.00 in0.0 mm 0.00 in0.0 mm 0.04 in1.0 mm
09:09 PM 48.6°F9.2°C 42.6°F5.9°C 80% 0.2 mph 0.3 kmh -- 29.92 in1013.2 mb 0.00 in0.0 mm 0.00 in0.0 mm 0.04 in1.0 mm
09:11 PM 48.6°F9.2°C 42.6°F5.9°C 80% 0.2 mph SE0.3 kmh SE -- 29.92 in1013.2 mb 0.00 in0.0 mm 0.00 in0.0 mm 0.04 in1.0 mm
09:14 PM 48.6°F9.2°C 42.6°F5.9°C 80% 0.4 mph ENE0.6 kmh ENE 2.2 mph3.5 kmh 29.92 in1013.2 mb 0.00 in0.0 mm 0.00 in0.0 mm 0.04 in1.0 mm
09:16 PM 48.6°F9.2°C 42.3°F5.7°C 79% 0.7 mph NNE1.1 kmh NNE 1.8 mph2.9 kmh 29.92 in1013.2 mb 0.00 in0.0 mm 0.00 in0.0 mm 0.04 in1.0 mm
09:18 PM 48.6°F9.2°C 42.3°F5.7°C 79% 0.4 mph ENE0.6 kmh ENE 1.6 mph2.6 kmh 29.92 in1013.2 mb 0.00 in0.0 mm 0.00 in0.0 mm 0.04 in1.0 mm
09:20 PM 48.4°F9.1°C 42.3°F5.7°C 79% 0.4 mph SW0.6 kmh SW 2.0 mph3.2 kmh 29.92 in1013.2 mb 0.00 in0.0 mm 0.00 in0.0 mm 0.04 in1.0 mm
09:23 PM 48.4°F9.1°C 42.3°F5.7°C 79% 0.7 mph E1.1 kmh E 2.9 mph4.7 kmh 29.92 in1013.2 mb 0.00 in0.0 mm 0.00 in0.0 mm 0.04 in1.0 mm
09:25 PM 48.4°F9.1°C 42.3°F5.7°C 79% 0.4 mph SE0.6 kmh SE -- 29.91 in1012.9 mb 0.00 in0.0 mm 0.00 in0.0 mm 0.04 in1.0 mm
09:27 PM 48.4°F9.1°C 42.3°F5.7°C 79% 0.7 mph ESE1.1 kmh ESE 1.3 mph2.1 kmh 29.91 in1012.9 mb 0.00 in0.0 mm 0.00 in0.0 mm 0.04 in1.0 mm
09:29 PM 48.4°F9.1°C 42.3°F5.7°C 79% 0.7 mph WNW1.1 kmh WNW 1.3 mph2.1 kmh 29.91 in1012.9 mb 0.00 in0.0 mm 0.00 in0.0 mm 0.04 in1.0 mm
09:32 PM 48.4°F9.1°C 42.3°F5.7°C 79% 0.9 mph ESE1.4 kmh ESE 2.9 mph4.7 kmh 29.91 in1012.9 mb 0.00 in0.0 mm 0.00 in0.0 mm 0.04 in1.0 mm
09:34 PM 48.6°F9.2°C 42.3°F5.7°C 79% 0.4 mph NNW0.6 kmh NNW -- 29.91 in1012.9 mb 0.00 in0.0 mm 0.00 in0.0 mm 0.04 in1.0 mm
09:36 PM 48.7°F9.3°C 42.4°F5.8°C 79% 0.2 mph NW0.3 kmh NW -- 29.91 in1012.9 mb 0.00 in0.0 mm 0.00 in0.0 mm 0.04 in1.0 mm
09:38 PM 48.7°F9.3°C 42.4°F5.8°C 79% 0.4 mph S0.6 kmh S 2.2 mph3.5 kmh 29.91 in1012.9 mb 0.00 in0.0 mm 0.00 in0.0 mm 0.04 in1.0 mm
09:41 PM 48.9°F9.4°C 42.6°F5.9°C 79% 0.2 mph WNW0.3 kmh WNW -- 29.91 in1012.9 mb 0.00 in0.0 mm 0.00 in0.0 mm 0.04 in1.0 mm
09:43 PM 48.9°F9.4°C 42.6°F5.9°C 79% 0.2 mph SE0.3 kmh SE -- 29.91 in1012.9 mb 0.00 in0.0 mm 0.00 in0.0 mm 0.04 in1.0 mm
09:45 PM 48.9°F9.4°C 42.6°F5.9°C 79% 0.4 mph W0.6 kmh W 1.6 mph2.6 kmh 29.90 in1012.5 mb 0.00 in0.0 mm 0.00 in0.0 mm 0.04 in1.0 mm
09:47 PM 48.9°F9.4°C 42.6°F5.9°C 79% 0.2 mph 0.3 kmh -- 29.90 in1012.5 mb 0.00 in0.0 mm 0.00 in0.0 mm 0.04 in1.0 mm
09:50 PM 49.1°F9.5°C 42.8°F6.0°C 79% 0.4 mph WNW0.6 kmh WNW 1.3 mph2.1 kmh 29.90 in1012.5 mb 0.00 in0.0 mm 0.00 in0.0 mm 0.04 in1.0 mm
09:52 PM 49.1°F9.5°C 42.8°F6.0°C 79% 0.7 mph W1.1 kmh W 2.0 mph3.2 kmh 29.90 in1012.5 mb 0.00 in0.0 mm 0.00 in0.0 mm 0.04 in1.0 mm
09:54 PM 49.1°F9.5°C 42.8°F6.0°C 79% 0.4 mph SSW0.6 kmh SSW 1.1 mph1.8 kmh 29.90 in1012.5 mb 0.00 in0.0 mm 0.00 in0.0 mm 0.04 in1.0 mm
09:57 PM 49.1°F9.5°C 42.8°F6.0°C 79% 0.2 mph ESE0.3 kmh ESE -- 29.90 in1012.5 mb 0.00 in0.0 mm 0.00 in0.0 mm 0.04 in1.0 mm
09:59 PM 49.1°F9.5°C 42.8°F6.0°C 79% 0.4 mph NNE0.6 kmh NNE 2.2 mph3.5 kmh 29.90 in1012.5 mb 0.00 in0.0 mm 0.00 in0.0 mm 0.04 in1.0 mm
10:01 PM 49.1°F9.5°C 42.8°F6.0°C 79% 0.7 mph NNW1.1 kmh NNW 2.9 mph4.7 kmh 29.90 in1012.5 mb 0.00 in0.0 mm 0.00 in0.0 mm 0.04 in1.0 mm
10:03 PM 49.3°F9.6°C 42.8°F6.0°C 78% 0.9 mph WNW1.4 kmh WNW 2.2 mph3.5 kmh 29.90 in1012.5 mb 0.00 in0.0 mm 0.00 in0.0 mm 0.04 in1.0 mm
10:05 PM 49.3°F9.6°C 42.8°F6.0°C 78% 0.9 mph WNW1.4 kmh WNW 3.4 mph5.5 kmh 29.90 in1012.5 mb 0.00 in0.0 mm 0.00 in0.0 mm 0.04 in1.0 mm
10:08 PM 49.3°F9.6°C 42.8°F6.0°C 78% 0.9 mph W1.4 kmh W 2.7 mph4.3 kmh 29.91 in1012.9 mb 0.00 in0.0 mm 0.00 in0.0 mm 0.04 in1.0 mm
10:10 PM 49.3°F9.6°C 42.8°F6.0°C 78% 0.9 mph ENE1.4 kmh ENE 2.5 mph4.0 kmh 29.91 in1012.9 mb 0.00 in0.0 mm 0.00 in0.0 mm 0.04 in1.0 mm
10:12 PM 49.3°F9.6°C 42.8°F6.0°C 78% 1.1 mph WSW1.8 kmh WSW 2.5 mph4.0 kmh 29.91 in1012.9 mb 0.00 in0.0 mm 0.00 in0.0 mm 0.04 in1.0 mm
10:15 PM 49.6°F9.8°C 43.0°F6.1°C 78% 1.1 mph S1.8 kmh S 3.6 mph5.8 kmh 29.91 in1012.9 mb 0.00 in0.0 mm 0.00 in0.0 mm 0.04 in1.0 mm
10:17 PM 49.6°F9.8°C 43.0°F6.1°C 78% 0.9 mph NNW1.4 kmh NNW 2.0 mph3.2 kmh 29.91 in1012.9 mb 0.00 in0.0 mm 0.00 in0.0 mm 0.04 in1.0 mm
10:19 PM 49.3°F9.6°C 42.8°F6.0°C 78% 0.7 mph W1.1 kmh W 1.6 mph2.6 kmh 29.91 in1012.9 mb 0.00 in0.0 mm 0.00 in0.0 mm 0.04 in1.0 mm
10:21 PM 49.3°F9.6°C 42.8°F6.0°C 78% 0.7 mph 1.1 kmh 3.1 mph5.0 kmh 29.91 in1012.9 mb 0.00 in0.0 mm 0.00 in0.0 mm 0.04 in1.0 mm
10:24 PM 49.3°F9.6°C 42.8°F6.0°C 78% 0.9 mph E1.4 kmh E 1.8 mph2.9 kmh 29.91 in1012.9 mb 0.00 in0.0 mm 0.00 in0.0 mm 0.04 in1.0 mm
10:26 PM 49.3°F9.6°C 42.8°F6.0°C 78% 0.4 mph ESE0.6 kmh ESE -- 29.91 in1012.9 mb 0.00 in0.0 mm 0.00 in0.0 mm 0.04 in1.0 mm
10:28 PM 49.3°F9.6°C 42.8°F6.0°C 78% 0.4 mph 0.6 kmh 0.9 mph1.4 kmh 29.91 in1012.9 mb 0.00 in0.0 mm 0.00 in0.0 mm 0.04 in1.0 mm
10:30 PM 49.3°F9.6°C 42.8°F6.0°C 78% 0.7 mph NNW1.1 kmh NNW 2.2 mph3.5 kmh 29.91 in1012.9 mb 0.00 in0.0 mm 0.00 in0.0 mm 0.04 in1.0 mm
10:32 PM 49.3°F9.6°C 42.8°F6.0°C 78% 0.4 mph NNW0.6 kmh NNW 1.3 mph2.1 kmh 29.91 in1012.9 mb 0.00 in0.0 mm 0.00 in0.0 mm 0.04 in1.0 mm
10:35 PM 49.3°F9.6°C 42.8°F6.0°C 78% 0.2 mph WNW0.3 kmh WNW -- 29.91 in1012.9 mb 0.00 in0.0 mm 0.00 in0.0 mm 0.04 in1.0 mm
10:37 PM 49.3°F9.6°C 42.8°F6.0°C 78% 0.9 mph WNW1.4 kmh WNW 3.8 mph6.1 kmh 29.91 in1012.9 mb 0.00 in0.0 mm 0.00 in0.0 mm 0.04 in1.0 mm
10:39 PM 49.3°F9.6°C 42.8°F6.0°C 78% 0.9 mph W1.4 kmh W 2.5 mph4.0 kmh 29.91 in1012.9 mb 0.00 in0.0 mm 0.00 in0.0 mm 0.04 in1.0 mm
10:41 PM 49.5°F9.7°C 42.8°F6.0°C 78% 0.9 mph W1.4 kmh W 2.7 mph4.3 kmh 29.91 in1012.9 mb 0.00 in0.0 mm 0.00 in0.0 mm 0.04 in1.0 mm
10:44 PM 49.5°F9.7°C 42.8°F6.0°C 78% 0.7 mph W1.1 kmh W 2.2 mph3.5 kmh 29.91 in1012.9 mb 0.00 in0.0 mm 0.00 in0.0 mm 0.04 in1.0 mm
10:46 PM 49.6°F9.8°C 43.0°F6.1°C 78% 1.6 mph W2.6 kmh W 4.9 mph7.9 kmh 29.91 in1012.9 mb 0.00 in0.0 mm 0.00 in0.0 mm 0.04 in1.0 mm
10:48 PM 49.6°F9.8°C 43.0°F6.1°C 78% 1.3 mph WNW2.1 kmh WNW 4.5 mph7.2 kmh 29.91 in1012.9 mb 0.00 in0.0 mm 0.00 in0.0 mm 0.04 in1.0 mm
10:50 PM 49.6°F9.8°C 43.0°F6.1°C 78% 0.9 mph WNW1.4 kmh WNW 1.3 mph2.1 kmh 29.91 in1012.9 mb 0.00 in0.0 mm 0.00 in0.0 mm 0.04 in1.0 mm
10:52 PM 49.6°F9.8°C 43.0°F6.1°C 78% 1.6 mph SSE2.6 kmh SSE 4.5 mph7.2 kmh 29.91 in1012.9 mb 0.00 in0.0 mm 0.00 in0.0 mm 0.04 in1.0 mm
10:55 PM 49.6°F9.8°C 43.0°F6.1°C 78% 1.1 mph WNW1.8 kmh WNW 1.8 mph2.9 kmh 29.91 in1012.9 mb 0.00 in0.0 mm 0.00 in0.0 mm 0.04 in1.0 mm
10:57 PM 49.6°F9.8°C 43.0°F6.1°C 78% 1.3 mph W2.1 kmh W 2.9 mph4.7 kmh 29.91 in1012.9 mb 0.00 in0.0 mm 0.00 in0.0 mm 0.04 in1.0 mm
10:59 PM 49.6°F9.8°C 43.0°F6.1°C 78% 1.6 mph SSW2.6 kmh SSW 4.0 mph6.4 kmh 29.91 in1012.9 mb 0.00 in0.0 mm 0.00 in0.0 mm 0.04 in1.0 mm
11:01 PM 49.6°F9.8°C 43.0°F6.1°C 78% 2.0 mph W3.2 kmh W 4.5 mph7.2 kmh 29.91 in1012.9 mb 0.00 in0.0 mm 0.00 in0.0 mm 0.04 in1.0 mm
11:04 PM 49.6°F9.8°C 43.0°F6.1°C 78% 1.8 mph WNW2.9 kmh WNW 3.6 mph5.8 kmh 29.91 in1012.9 mb 0.00 in0.0 mm 0.00 in0.0 mm 0.04 in1.0 mm
11:06 PM 49.6°F9.8°C 43.0°F6.1°C 78% 1.6 mph NW2.6 kmh NW 2.5 mph4.0 kmh 29.91 in1012.9 mb 0.00 in0.0 mm 0.00 in0.0 mm 0.04 in1.0 mm
11:08 PM 49.6°F9.8°C 43.3°F6.3°C 79% 2.0 mph WNW3.2 kmh WNW 3.4 mph5.5 kmh 29.91 in1012.9 mb 0.00 in0.0 mm 0.00 in0.0 mm 0.04 in1.0 mm
11:10 PM 49.6°F9.8°C 43.3°F6.3°C 79% 1.6 mph NE2.6 kmh NE 5.1 mph8.2 kmh 29.91 in1012.9 mb 0.00 in0.0 mm 0.00 in0.0 mm 0.04 in1.0 mm
11:12 PM 49.5°F9.7°C 43.2°F6.2°C 79% 1.3 mph NE2.1 kmh NE 2.0 mph3.2 kmh 29.91 in1012.9 mb 0.00 in0.0 mm 0.00 in0.0 mm 0.04 in1.0 mm
11:14 PM 49.3°F9.6°C 43.0°F6.1°C 79% 1.6 mph NNW2.6 kmh NNW 3.8 mph6.1 kmh 29.91 in1012.9 mb 0.00 in0.0 mm 0.00 in0.0 mm 0.04 in1.0 mm
11:16 PM 49.3°F9.6°C 43.0°F6.1°C 79% 2.2 mph WSW3.5 kmh WSW 5.8 mph9.3 kmh 29.91 in1012.9 mb 0.00 in0.0 mm 0.00 in0.0 mm 0.04 in1.0 mm
11:19 PM 49.3°F9.6°C 43.0°F6.1°C 79% 2.7 mph 4.3 kmh 8.3 mph13.4 kmh 29.91 in1012.9 mb 0.00 in0.0 mm 0.00 in0.0 mm 0.04 in1.0 mm
11:21 PM 49.3°F9.6°C 43.0°F6.1°C 79% 3.1 mph W5.0 kmh W 6.7 mph10.8 kmh 29.91 in1012.9 mb 0.00 in0.0 mm 0.00 in0.0 mm 0.04 in1.0 mm
11:23 PM 49.1°F9.5°C 42.8°F6.0°C 79% 3.1 mph W5.0 kmh W 4.5 mph7.2 kmh 29.91 in1012.9 mb 0.00 in0.0 mm 0.00 in0.0 mm 0.04 in1.0 mm
11:25 PM 49.1°F9.5°C 43.2°F6.2°C 80% 2.9 mph W4.7 kmh W 4.0 mph6.4 kmh 29.91 in1012.9 mb 0.00 in0.0 mm 0.00 in0.0 mm 0.04 in1.0 mm
11:28 PM 48.9°F9.4°C 42.6°F5.9°C 79% 2.5 mph WNW4.0 kmh WNW 2.9 mph4.7 kmh 29.91 in1012.9 mb 0.00 in0.0 mm 0.00 in0.0 mm 0.04 in1.0 mm
11:30 PM 48.7°F9.3°C 42.8°F6.0°C 80% 3.1 mph WNW5.0 kmh WNW 5.1 mph8.2 kmh 29.90 in1012.5 mb 0.00 in0.0 mm 0.00 in0.0 mm 0.04 in1.0 mm
11:32 PM 48.7°F9.3°C 42.8°F6.0°C 80% 2.5 mph ENE4.0 kmh ENE 3.1 mph5.0 kmh 29.91 in1012.9 mb 0.00 in0.0 mm 0.00 in0.0 mm 0.04 in1.0 mm
11:35 PM 48.6°F9.2°C 42.6°F5.9°C 80% 3.1 mph SW5.0 kmh SW 7.6 mph12.2 kmh 29.91 in1012.9 mb 0.00 in0.0 mm 0.00 in0.0 mm 0.04 in1.0 mm
11:37 PM 48.6°F9.2°C 42.6°F5.9°C 80% 2.9 mph W4.7 kmh W 5.4 mph8.7 kmh 29.90 in1012.5 mb 0.00 in0.0 mm 0.00 in0.0 mm 0.04 in1.0 mm
11:39 PM 48.4°F9.1°C 42.4°F5.8°C 80% 2.5 mph S4.0 kmh S 2.7 mph4.3 kmh 29.90 in1012.5 mb 0.00 in0.0 mm 0.00 in0.0 mm 0.04 in1.0 mm
11:41 PM 48.4°F9.1°C 42.4°F5.8°C 80% 2.0 mph NNE3.2 kmh NNE 3.6 mph5.8 kmh 29.90 in1012.5 mb 0.00 in0.0 mm 0.00 in0.0 mm 0.04 in1.0 mm
11:43 PM 48.4°F9.1°C 42.4°F5.8°C 80% 2.2 mph WNW3.5 kmh WNW 4.5 mph7.2 kmh 29.90 in1012.5 mb 0.00 in0.0 mm 0.00 in0.0 mm 0.04 in1.0 mm
11:45 PM 48.2°F9.0°C 42.3°F5.7°C 80% 1.8 mph S2.9 kmh S 3.4 mph5.5 kmh 29.90 in1012.5 mb 0.00 in0.0 mm 0.00 in0.0 mm 0.04 in1.0 mm
11:47 PM 48.2°F9.0°C 42.3°F5.7°C 80% 1.8 mph WNW2.9 kmh WNW 2.9 mph4.7 kmh 29.91 in1012.9 mb 0.00 in0.0 mm 0.00 in0.0 mm 0.04 in1.0 mm
11:50 PM 48.2°F9.0°C 42.3°F5.7°C 80% 2.0 mph SSW3.2 kmh SSW 5.1 mph8.2 kmh 29.91 in1012.9 mb 0.00 in0.0 mm 0.00 in0.0 mm 0.04 in1.0 mm
11:52 PM 48.2°F9.0°C 42.3°F5.7°C 80% 2.0 mph SSE3.2 kmh SSE 4.5 mph7.2 kmh 29.91 in1012.9 mb 0.00 in0.0 mm 0.00 in0.0 mm 0.04 in1.0 mm
11:54 PM 48.2°F9.0°C 42.3°F5.7°C 80% 2.2 mph SW3.5 kmh SW 4.5 mph7.2 kmh 29.90 in1012.5 mb 0.00 in0.0 mm 0.00 in0.0 mm 0.04 in1.0 mm
11:56 PM 48.2°F9.0°C 42.1°F5.6°C 79% 1.8 mph E2.9 kmh E 2.7 mph4.3 kmh 29.90 in1012.5 mb 0.00 in0.0 mm 0.00 in0.0 mm 0.04 in1.0 mm
11:59 PM 48.2°F9.0°C 42.1°F5.6°C 79% 2.2 mph NNE3.5 kmh NNE 4.9 mph7.9 kmh 29.89 in1012.2 mb 0.00 in0.0 mm 0.00 in0.0 mm 0.04 in1.0 mm